<?xml version="1.0" encoding="UTF-8" standalone="no" ?>
<gpx xmlns="http://www.topografix.com/GPX/1/1" xmlns:xsi="http://www.w3.org/2001/XMLSchema-instance" xsi:schemaLocation="http://www.topografix.com/GPX/1/1 http://www.topografix.com/GPX/1/1/gpx.xsd" version="1.1" creator="VisuGPX - https://www.visugpx.com">
  <metadata>
    <name>2021-01-16 le Petit Ballon</name>
  </metadata>
  <trk>
    <name><![CDATA[2021-01-16 ]]></name>
    <extensions>
      <line xmlns="http://www.topografix.com/GPX/gpx_style/0/2">
        <color>0000FF</color>
        <opacity>0.59</opacity>
        <width>6.0</width>
      </line>
    </extensions>
    <trkseg>
      <trkpt lat="47.98704" lon="7.08309">
        <ele>657.5</ele>
        <time>2021-01-16T08:03:14.000Z</time>
      </trkpt>
      <trkpt lat="47.98712" lon="7.08315">
        <ele>655.3</ele>
        <time>2021-01-16T08:04:13.000Z</time>
      </trkpt>
      <trkpt lat="47.98711" lon="7.08301">
        <ele>657.3</ele>
        <time>2021-01-16T08:04:54.000Z</time>
      </trkpt>
      <trkpt lat="47.98716" lon="7.0829">
        <ele>657.7</ele>
        <time>2021-01-16T08:05:11.000Z</time>
      </trkpt>
      <trkpt lat="47.98709" lon="7.08281">
        <ele>660.3</ele>
        <time>2021-01-16T08:05:33.000Z</time>
      </trkpt>
      <trkpt lat="47.98713" lon="7.08269">
        <ele>660.9</ele>
        <time>2021-01-16T08:05:43.000Z</time>
      </trkpt>
      <trkpt lat="47.98719" lon="7.08257">
        <ele>660.8</ele>
        <time>2021-01-16T08:05:54.000Z</time>
      </trkpt>
      <trkpt lat="47.98728" lon="7.08249">
        <ele>659.6</ele>
        <time>2021-01-16T08:06:02.000Z</time>
      </trkpt>
      <trkpt lat="47.98735" lon="7.08241">
        <ele>661</ele>
        <time>2021-01-16T08:06:12.000Z</time>
      </trkpt>
      <trkpt lat="47.98741" lon="7.0823">
        <ele>664</ele>
        <time>2021-01-16T08:06:22.000Z</time>
      </trkpt>
      <trkpt lat="47.98749" lon="7.08222">
        <ele>664.9</ele>
        <time>2021-01-16T08:06:30.000Z</time>
      </trkpt>
      <trkpt lat="47.98758" lon="7.08217">
        <ele>665.3</ele>
        <time>2021-01-16T08:06:38.000Z</time>
      </trkpt>
      <trkpt lat="47.98767" lon="7.08212">
        <ele>665.8</ele>
        <time>2021-01-16T08:06:47.000Z</time>
      </trkpt>
      <trkpt lat="47.98775" lon="7.08205">
        <ele>667</ele>
        <time>2021-01-16T08:07:00.000Z</time>
      </trkpt>
      <trkpt lat="47.98783" lon="7.08196">
        <ele>668.8</ele>
        <time>2021-01-16T08:07:11.000Z</time>
      </trkpt>
      <trkpt lat="47.98791" lon="7.08189">
        <ele>669.6</ele>
        <time>2021-01-16T08:07:22.000Z</time>
      </trkpt>
      <trkpt lat="47.988" lon="7.08185">
        <ele>669.1</ele>
        <time>2021-01-16T08:07:33.000Z</time>
      </trkpt>
      <trkpt lat="47.98808" lon="7.08178">
        <ele>670</ele>
        <time>2021-01-16T08:07:43.000Z</time>
      </trkpt>
      <trkpt lat="47.98817" lon="7.08173">
        <ele>669.6</ele>
        <time>2021-01-16T08:07:53.000Z</time>
      </trkpt>
      <trkpt lat="47.98826" lon="7.08169">
        <ele>669.2</ele>
        <time>2021-01-16T08:08:05.000Z</time>
      </trkpt>
      <trkpt lat="47.98834" lon="7.08163">
        <ele>669.1</ele>
        <time>2021-01-16T08:08:17.000Z</time>
      </trkpt>
      <trkpt lat="47.98842" lon="7.08154">
        <ele>669.4</ele>
        <time>2021-01-16T08:08:29.000Z</time>
      </trkpt>
      <trkpt lat="47.98848" lon="7.08144">
        <ele>670.1</ele>
        <time>2021-01-16T08:08:41.000Z</time>
      </trkpt>
      <trkpt lat="47.98852" lon="7.08132">
        <ele>672.6</ele>
        <time>2021-01-16T08:08:52.000Z</time>
      </trkpt>
      <trkpt lat="47.9886" lon="7.08124">
        <ele>672.5</ele>
        <time>2021-01-16T08:09:02.000Z</time>
      </trkpt>
      <trkpt lat="47.98865" lon="7.08112">
        <ele>674.6</ele>
        <time>2021-01-16T08:09:12.000Z</time>
      </trkpt>
      <trkpt lat="47.98872" lon="7.08103">
        <ele>674.8</ele>
        <time>2021-01-16T08:09:26.000Z</time>
      </trkpt>
      <trkpt lat="47.98876" lon="7.08091">
        <ele>677.4</ele>
        <time>2021-01-16T08:09:38.000Z</time>
      </trkpt>
      <trkpt lat="47.98883" lon="7.08081">
        <ele>678.1</ele>
        <time>2021-01-16T08:09:49.000Z</time>
      </trkpt>
      <trkpt lat="47.98887" lon="7.08069">
        <ele>681.5</ele>
        <time>2021-01-16T08:09:58.000Z</time>
      </trkpt>
      <trkpt lat="47.98894" lon="7.08058">
        <ele>683.5</ele>
        <time>2021-01-16T08:10:07.000Z</time>
      </trkpt>
      <trkpt lat="47.98899" lon="7.08044">
        <ele>687.4</ele>
        <time>2021-01-16T08:10:17.000Z</time>
      </trkpt>
      <trkpt lat="47.98918" lon="7.08029">
        <ele>688.8</ele>
        <time>2021-01-16T08:10:22.000Z</time>
      </trkpt>
      <trkpt lat="47.98927" lon="7.08025">
        <ele>688.6</ele>
        <time>2021-01-16T08:10:52.000Z</time>
      </trkpt>
      <trkpt lat="47.98936" lon="7.0802">
        <ele>689.1</ele>
        <time>2021-01-16T08:11:03.000Z</time>
      </trkpt>
      <trkpt lat="47.98944" lon="7.08012">
        <ele>691.1</ele>
        <time>2021-01-16T08:11:18.000Z</time>
      </trkpt>
      <trkpt lat="47.98952" lon="7.08004">
        <ele>693.1</ele>
        <time>2021-01-16T08:11:27.000Z</time>
      </trkpt>
      <trkpt lat="47.98961" lon="7.07998">
        <ele>693.8</ele>
        <time>2021-01-16T08:11:39.000Z</time>
      </trkpt>
      <trkpt lat="47.98968" lon="7.07988">
        <ele>695.1</ele>
        <time>2021-01-16T08:11:49.000Z</time>
      </trkpt>
      <trkpt lat="47.98976" lon="7.07981">
        <ele>695.8</ele>
        <time>2021-01-16T08:11:59.000Z</time>
      </trkpt>
      <trkpt lat="47.98983" lon="7.07971">
        <ele>697.3</ele>
        <time>2021-01-16T08:12:11.000Z</time>
      </trkpt>
      <trkpt lat="47.98991" lon="7.07964">
        <ele>698.2</ele>
        <time>2021-01-16T08:12:20.000Z</time>
      </trkpt>
      <trkpt lat="47.98997" lon="7.07954">
        <ele>700</ele>
        <time>2021-01-16T08:12:30.000Z</time>
      </trkpt>
      <trkpt lat="47.99005" lon="7.07945">
        <ele>701</ele>
        <time>2021-01-16T08:12:40.000Z</time>
      </trkpt>
      <trkpt lat="47.99012" lon="7.07935">
        <ele>703</ele>
        <time>2021-01-16T08:12:48.000Z</time>
      </trkpt>
      <trkpt lat="47.99019" lon="7.07927">
        <ele>704.2</ele>
        <time>2021-01-16T08:12:57.000Z</time>
      </trkpt>
      <trkpt lat="47.99025" lon="7.07916">
        <ele>706.8</ele>
        <time>2021-01-16T08:13:10.000Z</time>
      </trkpt>
      <trkpt lat="47.99034" lon="7.07912">
        <ele>706.2</ele>
        <time>2021-01-16T08:13:21.000Z</time>
      </trkpt>
      <trkpt lat="47.99042" lon="7.07904">
        <ele>706.4</ele>
        <time>2021-01-16T08:13:32.000Z</time>
      </trkpt>
      <trkpt lat="47.99051" lon="7.07898">
        <ele>705.9</ele>
        <time>2021-01-16T08:13:41.000Z</time>
      </trkpt>
      <trkpt lat="47.99059" lon="7.07892">
        <ele>705.6</ele>
        <time>2021-01-16T08:13:49.000Z</time>
      </trkpt>
      <trkpt lat="47.99069" lon="7.07889">
        <ele>704.3</ele>
        <time>2021-01-16T08:14:24.000Z</time>
      </trkpt>
      <trkpt lat="47.99077" lon="7.07886">
        <ele>703.3</ele>
        <time>2021-01-16T08:14:36.000Z</time>
      </trkpt>
      <trkpt lat="47.99085" lon="7.07877">
        <ele>703.4</ele>
        <time>2021-01-16T08:14:51.000Z</time>
      </trkpt>
      <trkpt lat="47.99093" lon="7.0787">
        <ele>703</ele>
        <time>2021-01-16T08:15:00.000Z</time>
      </trkpt>
      <trkpt lat="47.991" lon="7.07861">
        <ele>703.3</ele>
        <time>2021-01-16T08:15:10.000Z</time>
      </trkpt>
      <trkpt lat="47.99108" lon="7.07853">
        <ele>703.3</ele>
        <time>2021-01-16T08:15:20.000Z</time>
      </trkpt>
      <trkpt lat="47.99116" lon="7.07848">
        <ele>703</ele>
        <time>2021-01-16T08:15:28.000Z</time>
      </trkpt>
      <trkpt lat="47.99124" lon="7.07841">
        <ele>703</ele>
        <time>2021-01-16T08:15:39.000Z</time>
      </trkpt>
      <trkpt lat="47.99131" lon="7.07832">
        <ele>703.7</ele>
        <time>2021-01-16T08:15:49.000Z</time>
      </trkpt>
      <trkpt lat="47.99137" lon="7.07821">
        <ele>703.4</ele>
        <time>2021-01-16T08:15:59.000Z</time>
      </trkpt>
      <trkpt lat="47.99143" lon="7.07809">
        <ele>703.3</ele>
        <time>2021-01-16T08:16:09.000Z</time>
      </trkpt>
      <trkpt lat="47.99149" lon="7.07798">
        <ele>703.6</ele>
        <time>2021-01-16T08:16:18.000Z</time>
      </trkpt>
      <trkpt lat="47.99153" lon="7.07786">
        <ele>704.3</ele>
        <time>2021-01-16T08:16:25.000Z</time>
      </trkpt>
      <trkpt lat="47.99147" lon="7.07775">
        <ele>705.6</ele>
        <time>2021-01-16T08:16:58.000Z</time>
      </trkpt>
      <trkpt lat="47.99138" lon="7.07777">
        <ele>706</ele>
        <time>2021-01-16T08:17:05.000Z</time>
      </trkpt>
      <trkpt lat="47.99129" lon="7.07781">
        <ele>706.4</ele>
        <time>2021-01-16T08:17:13.000Z</time>
      </trkpt>
      <trkpt lat="47.99119" lon="7.07784">
        <ele>707.1</ele>
        <time>2021-01-16T08:17:21.000Z</time>
      </trkpt>
      <trkpt lat="47.9911" lon="7.07787">
        <ele>707.7</ele>
        <time>2021-01-16T08:17:29.000Z</time>
      </trkpt>
      <trkpt lat="47.99101" lon="7.07787">
        <ele>708.5</ele>
        <time>2021-01-16T08:17:38.000Z</time>
      </trkpt>
      <trkpt lat="47.99091" lon="7.07791">
        <ele>709.3</ele>
        <time>2021-01-16T08:17:49.000Z</time>
      </trkpt>
      <trkpt lat="47.99082" lon="7.07791">
        <ele>710.2</ele>
        <time>2021-01-16T08:17:59.000Z</time>
      </trkpt>
      <trkpt lat="47.99072" lon="7.07791">
        <ele>711.8</ele>
        <time>2021-01-16T08:18:08.000Z</time>
      </trkpt>
      <trkpt lat="47.99063" lon="7.07791">
        <ele>713.3</ele>
        <time>2021-01-16T08:18:19.000Z</time>
      </trkpt>
      <trkpt lat="47.99053" lon="7.0779">
        <ele>714.8</ele>
        <time>2021-01-16T08:18:31.000Z</time>
      </trkpt>
      <trkpt lat="47.99044" lon="7.07792">
        <ele>716.4</ele>
        <time>2021-01-16T08:18:40.000Z</time>
      </trkpt>
      <trkpt lat="47.99035" lon="7.07796">
        <ele>718.2</ele>
        <time>2021-01-16T08:18:48.000Z</time>
      </trkpt>
      <trkpt lat="47.99025" lon="7.07795">
        <ele>719.7</ele>
        <time>2021-01-16T08:18:58.000Z</time>
      </trkpt>
      <trkpt lat="47.99015" lon="7.07798">
        <ele>721.6</ele>
        <time>2021-01-16T08:19:09.000Z</time>
      </trkpt>
      <trkpt lat="47.99006" lon="7.07802">
        <ele>723.6</ele>
        <time>2021-01-16T08:19:18.000Z</time>
      </trkpt>
      <trkpt lat="47.98997" lon="7.07803">
        <ele>725</ele>
        <time>2021-01-16T08:19:30.000Z</time>
      </trkpt>
      <trkpt lat="47.98987" lon="7.07804">
        <ele>725.9</ele>
        <time>2021-01-16T08:19:44.000Z</time>
      </trkpt>
      <trkpt lat="47.98978" lon="7.07806">
        <ele>727</ele>
        <time>2021-01-16T08:19:54.000Z</time>
      </trkpt>
      <trkpt lat="47.98968" lon="7.0781">
        <ele>728.3</ele>
        <time>2021-01-16T08:20:04.000Z</time>
      </trkpt>
      <trkpt lat="47.98959" lon="7.07814">
        <ele>729.5</ele>
        <time>2021-01-16T08:20:15.000Z</time>
      </trkpt>
      <trkpt lat="47.9895" lon="7.07818">
        <ele>730.7</ele>
        <time>2021-01-16T08:20:30.000Z</time>
      </trkpt>
      <trkpt lat="47.98941" lon="7.07822">
        <ele>731.8</ele>
        <time>2021-01-16T08:20:43.000Z</time>
      </trkpt>
      <trkpt lat="47.98932" lon="7.07824">
        <ele>732.8</ele>
        <time>2021-01-16T08:20:54.000Z</time>
      </trkpt>
      <trkpt lat="47.98923" lon="7.07825">
        <ele>733.7</ele>
        <time>2021-01-16T08:21:06.000Z</time>
      </trkpt>
      <trkpt lat="47.98914" lon="7.07825">
        <ele>734.4</ele>
        <time>2021-01-16T08:21:16.000Z</time>
      </trkpt>
      <trkpt lat="47.98904" lon="7.07824">
        <ele>734.9</ele>
        <time>2021-01-16T08:21:26.000Z</time>
      </trkpt>
      <trkpt lat="47.98895" lon="7.07823">
        <ele>735.4</ele>
        <time>2021-01-16T08:21:37.000Z</time>
      </trkpt>
      <trkpt lat="47.98886" lon="7.07824">
        <ele>736.1</ele>
        <time>2021-01-16T08:21:49.000Z</time>
      </trkpt>
      <trkpt lat="47.98877" lon="7.07823">
        <ele>736.6</ele>
        <time>2021-01-16T08:22:02.000Z</time>
      </trkpt>
      <trkpt lat="47.98867" lon="7.0782">
        <ele>737.1</ele>
        <time>2021-01-16T08:22:15.000Z</time>
      </trkpt>
      <trkpt lat="47.98858" lon="7.07819">
        <ele>737.6</ele>
        <time>2021-01-16T08:22:28.000Z</time>
      </trkpt>
      <trkpt lat="47.98848" lon="7.07817">
        <ele>738.2</ele>
        <time>2021-01-16T08:22:41.000Z</time>
      </trkpt>
      <trkpt lat="47.98839" lon="7.07817">
        <ele>738.9</ele>
        <time>2021-01-16T08:22:53.000Z</time>
      </trkpt>
      <trkpt lat="47.98829" lon="7.07818">
        <ele>739.9</ele>
        <time>2021-01-16T08:23:05.000Z</time>
      </trkpt>
      <trkpt lat="47.9882" lon="7.0782">
        <ele>741.6</ele>
        <time>2021-01-16T08:23:17.000Z</time>
      </trkpt>
      <trkpt lat="47.98811" lon="7.07821">
        <ele>743.2</ele>
        <time>2021-01-16T08:24:01.000Z</time>
      </trkpt>
      <trkpt lat="47.98802" lon="7.07816">
        <ele>744.6</ele>
        <time>2021-01-16T08:24:09.000Z</time>
      </trkpt>
      <trkpt lat="47.98793" lon="7.0781">
        <ele>746</ele>
        <time>2021-01-16T08:24:21.000Z</time>
      </trkpt>
      <trkpt lat="47.98786" lon="7.07801">
        <ele>747.1</ele>
        <time>2021-01-16T08:24:36.000Z</time>
      </trkpt>
      <trkpt lat="47.98778" lon="7.07795">
        <ele>748.6</ele>
        <time>2021-01-16T08:24:49.000Z</time>
      </trkpt>
      <trkpt lat="47.9877" lon="7.07788">
        <ele>750.2</ele>
        <time>2021-01-16T08:25:01.000Z</time>
      </trkpt>
      <trkpt lat="47.98761" lon="7.07782">
        <ele>752</ele>
        <time>2021-01-16T08:25:11.000Z</time>
      </trkpt>
      <trkpt lat="47.98752" lon="7.07779">
        <ele>753.9</ele>
        <time>2021-01-16T08:25:24.000Z</time>
      </trkpt>
      <trkpt lat="47.98743" lon="7.07774">
        <ele>756.4</ele>
        <time>2021-01-16T08:25:35.000Z</time>
      </trkpt>
      <trkpt lat="47.98733" lon="7.07767">
        <ele>759.4</ele>
        <time>2021-01-16T08:25:58.000Z</time>
      </trkpt>
      <trkpt lat="47.98742" lon="7.0777">
        <ele>756.7</ele>
        <time>2021-01-16T08:27:20.000Z</time>
      </trkpt>
      <trkpt lat="47.98733" lon="7.07768">
        <ele>759.4</ele>
        <time>2021-01-16T08:27:41.000Z</time>
      </trkpt>
      <trkpt lat="47.98724" lon="7.07763">
        <ele>762</ele>
        <time>2021-01-16T08:29:43.000Z</time>
      </trkpt>
      <trkpt lat="47.98716" lon="7.07756">
        <ele>764.4</ele>
        <time>2021-01-16T08:29:58.000Z</time>
      </trkpt>
      <trkpt lat="47.98707" lon="7.0775">
        <ele>766.9</ele>
        <time>2021-01-16T08:30:10.000Z</time>
      </trkpt>
      <trkpt lat="47.98699" lon="7.07742">
        <ele>768.1</ele>
        <time>2021-01-16T08:30:21.000Z</time>
      </trkpt>
      <trkpt lat="47.9869" lon="7.07737">
        <ele>769.5</ele>
        <time>2021-01-16T08:30:31.000Z</time>
      </trkpt>
      <trkpt lat="47.98683" lon="7.0773">
        <ele>770.7</ele>
        <time>2021-01-16T08:30:44.000Z</time>
      </trkpt>
      <trkpt lat="47.98674" lon="7.07725">
        <ele>772.4</ele>
        <time>2021-01-16T08:30:58.000Z</time>
      </trkpt>
      <trkpt lat="47.98665" lon="7.0772">
        <ele>773.9</ele>
        <time>2021-01-16T08:31:10.000Z</time>
      </trkpt>
      <trkpt lat="47.98656" lon="7.07715">
        <ele>774.2</ele>
        <time>2021-01-16T08:31:22.000Z</time>
      </trkpt>
      <trkpt lat="47.98647" lon="7.0771">
        <ele>774.8</ele>
        <time>2021-01-16T08:31:33.000Z</time>
      </trkpt>
      <trkpt lat="47.98638" lon="7.07705">
        <ele>775.5</ele>
        <time>2021-01-16T08:31:44.000Z</time>
      </trkpt>
      <trkpt lat="47.9863" lon="7.07699">
        <ele>776</ele>
        <time>2021-01-16T08:31:56.000Z</time>
      </trkpt>
      <trkpt lat="47.98621" lon="7.07694">
        <ele>776.9</ele>
        <time>2021-01-16T08:32:10.000Z</time>
      </trkpt>
      <trkpt lat="47.98613" lon="7.07686">
        <ele>777.6</ele>
        <time>2021-01-16T08:32:19.000Z</time>
      </trkpt>
      <trkpt lat="47.98607" lon="7.07674">
        <ele>777.9</ele>
        <time>2021-01-16T08:32:35.000Z</time>
      </trkpt>
      <trkpt lat="47.98601" lon="7.07663">
        <ele>778.1</ele>
        <time>2021-01-16T08:32:46.000Z</time>
      </trkpt>
      <trkpt lat="47.98594" lon="7.07653">
        <ele>777.5</ele>
        <time>2021-01-16T08:32:57.000Z</time>
      </trkpt>
      <trkpt lat="47.98586" lon="7.07646">
        <ele>778</ele>
        <time>2021-01-16T08:33:09.000Z</time>
      </trkpt>
      <trkpt lat="47.9858" lon="7.07637">
        <ele>778</ele>
        <time>2021-01-16T08:33:21.000Z</time>
      </trkpt>
      <trkpt lat="47.98572" lon="7.07629">
        <ele>778.7</ele>
        <time>2021-01-16T08:33:36.000Z</time>
      </trkpt>
      <trkpt lat="47.98564" lon="7.07622">
        <ele>780</ele>
        <time>2021-01-16T08:33:47.000Z</time>
      </trkpt>
      <trkpt lat="47.98557" lon="7.07614">
        <ele>781.1</ele>
        <time>2021-01-16T08:34:01.000Z</time>
      </trkpt>
      <trkpt lat="47.98548" lon="7.07608">
        <ele>782.7</ele>
        <time>2021-01-16T08:34:17.000Z</time>
      </trkpt>
      <trkpt lat="47.9854" lon="7.07605">
        <ele>785.1</ele>
        <time>2021-01-16T08:34:30.000Z</time>
      </trkpt>
      <trkpt lat="47.98532" lon="7.07598">
        <ele>786.9</ele>
        <time>2021-01-16T08:34:42.000Z</time>
      </trkpt>
      <trkpt lat="47.98523" lon="7.07591">
        <ele>789</ele>
        <time>2021-01-16T08:35:01.000Z</time>
      </trkpt>
      <trkpt lat="47.98514" lon="7.07589">
        <ele>791.9</ele>
        <time>2021-01-16T08:35:14.000Z</time>
      </trkpt>
      <trkpt lat="47.98504" lon="7.07584">
        <ele>794.7</ele>
        <time>2021-01-16T08:35:24.000Z</time>
      </trkpt>
      <trkpt lat="47.98494" lon="7.07582">
        <ele>795.8</ele>
        <time>2021-01-16T08:35:36.000Z</time>
      </trkpt>
      <trkpt lat="47.98486" lon="7.07578">
        <ele>795.1</ele>
        <time>2021-01-16T08:35:45.000Z</time>
      </trkpt>
      <trkpt lat="47.98476" lon="7.07573">
        <ele>794.4</ele>
        <time>2021-01-16T08:36:03.000Z</time>
      </trkpt>
      <trkpt lat="47.98467" lon="7.07572">
        <ele>794.6</ele>
        <time>2021-01-16T08:36:14.000Z</time>
      </trkpt>
      <trkpt lat="47.98458" lon="7.07576">
        <ele>795.6</ele>
        <time>2021-01-16T08:36:27.000Z</time>
      </trkpt>
      <trkpt lat="47.9845" lon="7.07568">
        <ele>794.7</ele>
        <time>2021-01-16T08:36:36.000Z</time>
      </trkpt>
      <trkpt lat="47.98442" lon="7.07562">
        <ele>794.2</ele>
        <time>2021-01-16T08:36:43.000Z</time>
      </trkpt>
      <trkpt lat="47.98432" lon="7.07558">
        <ele>794.5</ele>
        <time>2021-01-16T08:36:56.000Z</time>
      </trkpt>
      <trkpt lat="47.98422" lon="7.07554">
        <ele>794.8</ele>
        <time>2021-01-16T08:37:06.000Z</time>
      </trkpt>
      <trkpt lat="47.98413" lon="7.07553">
        <ele>795.5</ele>
        <time>2021-01-16T08:37:14.000Z</time>
      </trkpt>
      <trkpt lat="47.98404" lon="7.07552">
        <ele>796.6</ele>
        <time>2021-01-16T08:37:23.000Z</time>
      </trkpt>
      <trkpt lat="47.98395" lon="7.07551">
        <ele>797.8</ele>
        <time>2021-01-16T08:37:34.000Z</time>
      </trkpt>
      <trkpt lat="47.98381" lon="7.07552">
        <ele>799.7</ele>
        <time>2021-01-16T08:37:51.000Z</time>
      </trkpt>
      <trkpt lat="47.98372" lon="7.07553">
        <ele>801</ele>
        <time>2021-01-16T08:38:02.000Z</time>
      </trkpt>
      <trkpt lat="47.98363" lon="7.07554">
        <ele>802.2</ele>
        <time>2021-01-16T08:38:16.000Z</time>
      </trkpt>
      <trkpt lat="47.98354" lon="7.0755">
        <ele>803.1</ele>
        <time>2021-01-16T08:38:35.000Z</time>
      </trkpt>
      <trkpt lat="47.98342" lon="7.0755">
        <ele>804.6</ele>
        <time>2021-01-16T08:38:52.000Z</time>
      </trkpt>
      <trkpt lat="47.9833" lon="7.07551">
        <ele>805.9</ele>
        <time>2021-01-16T08:39:09.000Z</time>
      </trkpt>
      <trkpt lat="47.98321" lon="7.07553">
        <ele>806.1</ele>
        <time>2021-01-16T08:39:21.000Z</time>
      </trkpt>
      <trkpt lat="47.9831" lon="7.07555">
        <ele>806.5</ele>
        <time>2021-01-16T08:39:40.000Z</time>
      </trkpt>
      <trkpt lat="47.98302" lon="7.07563">
        <ele>807.6</ele>
        <time>2021-01-16T08:39:54.000Z</time>
      </trkpt>
      <trkpt lat="47.983" lon="7.07576">
        <ele>809.3</ele>
        <time>2021-01-16T08:40:03.000Z</time>
      </trkpt>
      <trkpt lat="47.98295" lon="7.07589">
        <ele>810.3</ele>
        <time>2021-01-16T08:40:16.000Z</time>
      </trkpt>
      <trkpt lat="47.98291" lon="7.07602">
        <ele>810.5</ele>
        <time>2021-01-16T08:40:33.000Z</time>
      </trkpt>
      <trkpt lat="47.98288" lon="7.07615">
        <ele>810.6</ele>
        <time>2021-01-16T08:42:03.000Z</time>
      </trkpt>
      <trkpt lat="47.98279" lon="7.07614">
        <ele>811.3</ele>
        <time>2021-01-16T08:43:19.000Z</time>
      </trkpt>
      <trkpt lat="47.9827" lon="7.0762">
        <ele>812.1</ele>
        <time>2021-01-16T08:43:31.000Z</time>
      </trkpt>
      <trkpt lat="47.98261" lon="7.07623">
        <ele>813</ele>
        <time>2021-01-16T08:43:44.000Z</time>
      </trkpt>
      <trkpt lat="47.98253" lon="7.07632">
        <ele>814</ele>
        <time>2021-01-16T08:43:56.000Z</time>
      </trkpt>
      <trkpt lat="47.98247" lon="7.07642">
        <ele>814.9</ele>
        <time>2021-01-16T08:44:06.000Z</time>
      </trkpt>
      <trkpt lat="47.98239" lon="7.0765">
        <ele>815.5</ele>
        <time>2021-01-16T08:44:21.000Z</time>
      </trkpt>
      <trkpt lat="47.98231" lon="7.07657">
        <ele>816.3</ele>
        <time>2021-01-16T08:44:33.000Z</time>
      </trkpt>
      <trkpt lat="47.98226" lon="7.07668">
        <ele>817.5</ele>
        <time>2021-01-16T08:44:40.000Z</time>
      </trkpt>
      <trkpt lat="47.98219" lon="7.07678">
        <ele>818</ele>
        <time>2021-01-16T08:44:50.000Z</time>
      </trkpt>
      <trkpt lat="47.98213" lon="7.07688">
        <ele>818.7</ele>
        <time>2021-01-16T08:45:00.000Z</time>
      </trkpt>
      <trkpt lat="47.98206" lon="7.07696">
        <ele>819.6</ele>
        <time>2021-01-16T08:45:14.000Z</time>
      </trkpt>
      <trkpt lat="47.982" lon="7.07707">
        <ele>820.6</ele>
        <time>2021-01-16T08:45:23.000Z</time>
      </trkpt>
      <trkpt lat="47.98195" lon="7.07719">
        <ele>821.8</ele>
        <time>2021-01-16T08:45:32.000Z</time>
      </trkpt>
      <trkpt lat="47.98188" lon="7.07727">
        <ele>823.2</ele>
        <time>2021-01-16T08:45:45.000Z</time>
      </trkpt>
      <trkpt lat="47.98179" lon="7.0773">
        <ele>824.6</ele>
        <time>2021-01-16T08:45:57.000Z</time>
      </trkpt>
      <trkpt lat="47.98169" lon="7.07731">
        <ele>826</ele>
        <time>2021-01-16T08:46:09.000Z</time>
      </trkpt>
      <trkpt lat="47.9816" lon="7.07729">
        <ele>827.8</ele>
        <time>2021-01-16T08:46:21.000Z</time>
      </trkpt>
      <trkpt lat="47.98151" lon="7.07728">
        <ele>829.9</ele>
        <time>2021-01-16T08:46:32.000Z</time>
      </trkpt>
      <trkpt lat="47.98142" lon="7.07731">
        <ele>832.4</ele>
        <time>2021-01-16T08:46:42.000Z</time>
      </trkpt>
      <trkpt lat="47.98136" lon="7.0774">
        <ele>835.3</ele>
        <time>2021-01-16T08:46:53.000Z</time>
      </trkpt>
      <trkpt lat="47.98139" lon="7.07754">
        <ele>835.9</ele>
        <time>2021-01-16T08:47:55.000Z</time>
      </trkpt>
      <trkpt lat="47.98133" lon="7.07764">
        <ele>838.1</ele>
        <time>2021-01-16T08:48:45.000Z</time>
      </trkpt>
      <trkpt lat="47.9813" lon="7.07777">
        <ele>839.4</ele>
        <time>2021-01-16T08:49:06.000Z</time>
      </trkpt>
      <trkpt lat="47.98121" lon="7.07776">
        <ele>841.8</ele>
        <time>2021-01-16T08:49:20.000Z</time>
      </trkpt>
      <trkpt lat="47.98114" lon="7.07786">
        <ele>844.1</ele>
        <time>2021-01-16T08:49:38.000Z</time>
      </trkpt>
      <trkpt lat="47.98111" lon="7.07798">
        <ele>845.6</ele>
        <time>2021-01-16T08:49:53.000Z</time>
      </trkpt>
      <trkpt lat="47.98104" lon="7.07807">
        <ele>847.8</ele>
        <time>2021-01-16T08:50:41.000Z</time>
      </trkpt>
      <trkpt lat="47.98098" lon="7.07818">
        <ele>849.7</ele>
        <time>2021-01-16T08:51:03.000Z</time>
      </trkpt>
      <trkpt lat="47.98091" lon="7.07827">
        <ele>852</ele>
        <time>2021-01-16T08:52:18.000Z</time>
      </trkpt>
      <trkpt lat="47.98081" lon="7.07827">
        <ele>854.3</ele>
        <time>2021-01-16T08:52:31.000Z</time>
      </trkpt>
      <trkpt lat="47.98074" lon="7.07817">
        <ele>855.7</ele>
        <time>2021-01-16T08:52:45.000Z</time>
      </trkpt>
      <trkpt lat="47.98066" lon="7.07812">
        <ele>857.6</ele>
        <time>2021-01-16T08:53:04.000Z</time>
      </trkpt>
      <trkpt lat="47.98057" lon="7.07812">
        <ele>859.9</ele>
        <time>2021-01-16T08:53:25.000Z</time>
      </trkpt>
      <trkpt lat="47.98047" lon="7.07809">
        <ele>862.2</ele>
        <time>2021-01-16T08:53:40.000Z</time>
      </trkpt>
      <trkpt lat="47.98038" lon="7.07807">
        <ele>864.4</ele>
        <time>2021-01-16T08:53:55.000Z</time>
      </trkpt>
      <trkpt lat="47.98043" lon="7.07821">
        <ele>863.8</ele>
        <time>2021-01-16T08:55:34.000Z</time>
      </trkpt>
      <trkpt lat="47.98044" lon="7.07834">
        <ele>864</ele>
        <time>2021-01-16T08:55:43.000Z</time>
      </trkpt>
      <trkpt lat="47.98047" lon="7.07847">
        <ele>863.3</ele>
        <time>2021-01-16T08:55:55.000Z</time>
      </trkpt>
      <trkpt lat="47.98052" lon="7.0786">
        <ele>862.3</ele>
        <time>2021-01-16T08:56:08.000Z</time>
      </trkpt>
      <trkpt lat="47.98052" lon="7.07874">
        <ele>862.3</ele>
        <time>2021-01-16T08:56:29.000Z</time>
      </trkpt>
      <trkpt lat="47.9805" lon="7.07888">
        <ele>863</ele>
        <time>2021-01-16T08:56:43.000Z</time>
      </trkpt>
      <trkpt lat="47.98048" lon="7.07901">
        <ele>863.7</ele>
        <time>2021-01-16T08:56:56.000Z</time>
      </trkpt>
      <trkpt lat="47.98045" lon="7.07915">
        <ele>864.7</ele>
        <time>2021-01-16T08:57:16.000Z</time>
      </trkpt>
      <trkpt lat="47.98041" lon="7.07928">
        <ele>865.9</ele>
        <time>2021-01-16T08:57:33.000Z</time>
      </trkpt>
      <trkpt lat="47.98039" lon="7.07942">
        <ele>866.8</ele>
        <time>2021-01-16T08:57:53.000Z</time>
      </trkpt>
      <trkpt lat="47.98035" lon="7.07954">
        <ele>868.1</ele>
        <time>2021-01-16T08:58:29.000Z</time>
      </trkpt>
      <trkpt lat="47.98032" lon="7.07967">
        <ele>869.1</ele>
        <time>2021-01-16T08:58:42.000Z</time>
      </trkpt>
      <trkpt lat="47.9803" lon="7.07981">
        <ele>869.9</ele>
        <time>2021-01-16T08:58:58.000Z</time>
      </trkpt>
      <trkpt lat="47.98026" lon="7.07994">
        <ele>871</ele>
        <time>2021-01-16T08:59:56.000Z</time>
      </trkpt>
      <trkpt lat="47.98021" lon="7.08005">
        <ele>872.2</ele>
        <time>2021-01-16T09:00:50.000Z</time>
      </trkpt>
      <trkpt lat="47.98015" lon="7.08015">
        <ele>873.7</ele>
        <time>2021-01-16T09:01:00.000Z</time>
      </trkpt>
      <trkpt lat="47.98009" lon="7.08025">
        <ele>875.3</ele>
        <time>2021-01-16T09:01:12.000Z</time>
      </trkpt>
      <trkpt lat="47.98003" lon="7.08035">
        <ele>876.8</ele>
        <time>2021-01-16T09:01:24.000Z</time>
      </trkpt>
      <trkpt lat="47.97997" lon="7.08045">
        <ele>878.5</ele>
        <time>2021-01-16T09:01:38.000Z</time>
      </trkpt>
      <trkpt lat="47.9799" lon="7.08055">
        <ele>880.5</ele>
        <time>2021-01-16T09:01:54.000Z</time>
      </trkpt>
      <trkpt lat="47.97987" lon="7.08068">
        <ele>881.4</ele>
        <time>2021-01-16T09:02:08.000Z</time>
      </trkpt>
      <trkpt lat="47.97981" lon="7.08078">
        <ele>883.1</ele>
        <time>2021-01-16T09:02:27.000Z</time>
      </trkpt>
      <trkpt lat="47.97973" lon="7.08087">
        <ele>885.2</ele>
        <time>2021-01-16T09:02:41.000Z</time>
      </trkpt>
      <trkpt lat="47.97964" lon="7.0809">
        <ele>887.5</ele>
        <time>2021-01-16T09:03:05.000Z</time>
      </trkpt>
      <trkpt lat="47.97955" lon="7.08094">
        <ele>889.9</ele>
        <time>2021-01-16T09:03:22.000Z</time>
      </trkpt>
      <trkpt lat="47.97948" lon="7.08103">
        <ele>891.6</ele>
        <time>2021-01-16T09:03:38.000Z</time>
      </trkpt>
      <trkpt lat="47.97943" lon="7.08115">
        <ele>892.9</ele>
        <time>2021-01-16T09:03:56.000Z</time>
      </trkpt>
      <trkpt lat="47.97938" lon="7.08126">
        <ele>894</ele>
        <time>2021-01-16T09:04:10.000Z</time>
      </trkpt>
      <trkpt lat="47.97932" lon="7.08137">
        <ele>895.6</ele>
        <time>2021-01-16T09:04:26.000Z</time>
      </trkpt>
      <trkpt lat="47.97923" lon="7.08142">
        <ele>897.6</ele>
        <time>2021-01-16T09:05:47.000Z</time>
      </trkpt>
      <trkpt lat="47.97916" lon="7.0815">
        <ele>899.6</ele>
        <time>2021-01-16T09:06:06.000Z</time>
      </trkpt>
      <trkpt lat="47.97907" lon="7.08156">
        <ele>902.3</ele>
        <time>2021-01-16T09:06:21.000Z</time>
      </trkpt>
      <trkpt lat="47.979" lon="7.08165">
        <ele>904.7</ele>
        <time>2021-01-16T09:06:46.000Z</time>
      </trkpt>
      <trkpt lat="47.97892" lon="7.08172">
        <ele>907.4</ele>
        <time>2021-01-16T09:07:05.000Z</time>
      </trkpt>
      <trkpt lat="47.97884" lon="7.08165">
        <ele>910.2</ele>
        <time>2021-01-16T09:07:43.000Z</time>
      </trkpt>
      <trkpt lat="47.97879" lon="7.08152">
        <ele>911.9</ele>
        <time>2021-01-16T09:08:00.000Z</time>
      </trkpt>
      <trkpt lat="47.97873" lon="7.08142">
        <ele>914</ele>
        <time>2021-01-16T09:08:17.000Z</time>
      </trkpt>
      <trkpt lat="47.97868" lon="7.08131">
        <ele>916</ele>
        <time>2021-01-16T09:08:35.000Z</time>
      </trkpt>
      <trkpt lat="47.9786" lon="7.08118">
        <ele>918.5</ele>
        <time>2021-01-16T09:09:50.000Z</time>
      </trkpt>
      <trkpt lat="47.97854" lon="7.08109">
        <ele>920.8</ele>
        <time>2021-01-16T09:10:06.000Z</time>
      </trkpt>
      <trkpt lat="47.97847" lon="7.08099">
        <ele>923.2</ele>
        <time>2021-01-16T09:10:21.000Z</time>
      </trkpt>
      <trkpt lat="47.97841" lon="7.08088">
        <ele>925.3</ele>
        <time>2021-01-16T09:10:39.000Z</time>
      </trkpt>
      <trkpt lat="47.97834" lon="7.08078">
        <ele>927.5</ele>
        <time>2021-01-16T09:10:53.000Z</time>
      </trkpt>
      <trkpt lat="47.97828" lon="7.08069">
        <ele>929.5</ele>
        <time>2021-01-16T09:11:25.000Z</time>
      </trkpt>
      <trkpt lat="47.9782" lon="7.08063">
        <ele>931.9</ele>
        <time>2021-01-16T09:11:53.000Z</time>
      </trkpt>
      <trkpt lat="47.97811" lon="7.08056">
        <ele>934.4</ele>
        <time>2021-01-16T09:12:05.000Z</time>
      </trkpt>
      <trkpt lat="47.97802" lon="7.08054">
        <ele>937.3</ele>
        <time>2021-01-16T09:12:22.000Z</time>
      </trkpt>
      <trkpt lat="47.97793" lon="7.08056">
        <ele>940.1</ele>
        <time>2021-01-16T09:12:50.000Z</time>
      </trkpt>
      <trkpt lat="47.97784" lon="7.0806">
        <ele>943.1</ele>
        <time>2021-01-16T09:12:59.000Z</time>
      </trkpt>
      <trkpt lat="47.97776" lon="7.08068">
        <ele>945.4</ele>
        <time>2021-01-16T09:13:09.000Z</time>
      </trkpt>
      <trkpt lat="47.9777" lon="7.08079">
        <ele>947</ele>
        <time>2021-01-16T09:13:23.000Z</time>
      </trkpt>
      <trkpt lat="47.97763" lon="7.08086">
        <ele>949.1</ele>
        <time>2021-01-16T09:13:39.000Z</time>
      </trkpt>
      <trkpt lat="47.97755" lon="7.08093">
        <ele>951.3</ele>
        <time>2021-01-16T09:13:54.000Z</time>
      </trkpt>
      <trkpt lat="47.97747" lon="7.08099">
        <ele>953.5</ele>
        <time>2021-01-16T09:14:08.000Z</time>
      </trkpt>
      <trkpt lat="47.97738" lon="7.08105">
        <ele>955.8</ele>
        <time>2021-01-16T09:14:22.000Z</time>
      </trkpt>
      <trkpt lat="47.97731" lon="7.08114">
        <ele>957.7</ele>
        <time>2021-01-16T09:14:36.000Z</time>
      </trkpt>
      <trkpt lat="47.97721" lon="7.08114">
        <ele>960.4</ele>
        <time>2021-01-16T09:14:50.000Z</time>
      </trkpt>
      <trkpt lat="47.97712" lon="7.08115">
        <ele>963.1</ele>
        <time>2021-01-16T09:15:07.000Z</time>
      </trkpt>
      <trkpt lat="47.97703" lon="7.08116">
        <ele>965.7</ele>
        <time>2021-01-16T09:15:20.000Z</time>
      </trkpt>
      <trkpt lat="47.97694" lon="7.08114">
        <ele>968.5</ele>
        <time>2021-01-16T09:15:33.000Z</time>
      </trkpt>
      <trkpt lat="47.97686" lon="7.08108">
        <ele>971.2</ele>
        <time>2021-01-16T09:15:51.000Z</time>
      </trkpt>
      <trkpt lat="47.97676" lon="7.08113">
        <ele>973.7</ele>
        <time>2021-01-16T09:16:12.000Z</time>
      </trkpt>
      <trkpt lat="47.97667" lon="7.08118">
        <ele>976.1</ele>
        <time>2021-01-16T09:16:49.000Z</time>
      </trkpt>
      <trkpt lat="47.97659" lon="7.08126">
        <ele>977.2</ele>
        <time>2021-01-16T09:17:00.000Z</time>
      </trkpt>
      <trkpt lat="47.97651" lon="7.08131">
        <ele>978.5</ele>
        <time>2021-01-16T09:17:14.000Z</time>
      </trkpt>
      <trkpt lat="47.97643" lon="7.08138">
        <ele>979.7</ele>
        <time>2021-01-16T09:17:27.000Z</time>
      </trkpt>
      <trkpt lat="47.97635" lon="7.08146">
        <ele>980.9</ele>
        <time>2021-01-16T09:17:45.000Z</time>
      </trkpt>
      <trkpt lat="47.97627" lon="7.08153">
        <ele>982.3</ele>
        <time>2021-01-16T09:17:58.000Z</time>
      </trkpt>
      <trkpt lat="47.97619" lon="7.0816">
        <ele>983.8</ele>
        <time>2021-01-16T09:18:11.000Z</time>
      </trkpt>
      <trkpt lat="47.97611" lon="7.08168">
        <ele>985.3</ele>
        <time>2021-01-16T09:18:28.000Z</time>
      </trkpt>
      <trkpt lat="47.97603" lon="7.08175">
        <ele>986.7</ele>
        <time>2021-01-16T09:18:43.000Z</time>
      </trkpt>
      <trkpt lat="47.97595" lon="7.08181">
        <ele>988.2</ele>
        <time>2021-01-16T09:18:59.000Z</time>
      </trkpt>
      <trkpt lat="47.97586" lon="7.08187">
        <ele>989.8</ele>
        <time>2021-01-16T09:19:15.000Z</time>
      </trkpt>
      <trkpt lat="47.97577" lon="7.0819">
        <ele>992.2</ele>
        <time>2021-01-16T09:19:29.000Z</time>
      </trkpt>
      <trkpt lat="47.97567" lon="7.08191">
        <ele>994.9</ele>
        <time>2021-01-16T09:19:46.000Z</time>
      </trkpt>
      <trkpt lat="47.97558" lon="7.08195">
        <ele>997.4</ele>
        <time>2021-01-16T09:19:57.000Z</time>
      </trkpt>
      <trkpt lat="47.97549" lon="7.08194">
        <ele>1000.1</ele>
        <time>2021-01-16T09:20:12.000Z</time>
      </trkpt>
      <trkpt lat="47.9754" lon="7.08193">
        <ele>1002.9</ele>
        <time>2021-01-16T09:20:25.000Z</time>
      </trkpt>
      <trkpt lat="47.97531" lon="7.08189">
        <ele>1005.7</ele>
        <time>2021-01-16T09:20:37.000Z</time>
      </trkpt>
      <trkpt lat="47.97522" lon="7.08187">
        <ele>1008.6</ele>
        <time>2021-01-16T09:20:50.000Z</time>
      </trkpt>
      <trkpt lat="47.97515" lon="7.08177">
        <ele>1011</ele>
        <time>2021-01-16T09:21:04.000Z</time>
      </trkpt>
      <trkpt lat="47.97506" lon="7.08176">
        <ele>1013.8</ele>
        <time>2021-01-16T09:21:28.000Z</time>
      </trkpt>
      <trkpt lat="47.97499" lon="7.08168">
        <ele>1016.6</ele>
        <time>2021-01-16T09:21:50.000Z</time>
      </trkpt>
      <trkpt lat="47.97495" lon="7.08155">
        <ele>1018</ele>
        <time>2021-01-16T09:22:03.000Z</time>
      </trkpt>
      <trkpt lat="47.97491" lon="7.08143">
        <ele>1019.8</ele>
        <time>2021-01-16T09:22:19.000Z</time>
      </trkpt>
      <trkpt lat="47.97483" lon="7.08139">
        <ele>1023.5</ele>
        <time>2021-01-16T09:22:36.000Z</time>
      </trkpt>
      <trkpt lat="47.97475" lon="7.08147">
        <ele>1026.7</ele>
        <time>2021-01-16T09:22:49.000Z</time>
      </trkpt>
      <trkpt lat="47.97469" lon="7.08159">
        <ele>1029</ele>
        <time>2021-01-16T09:23:02.000Z</time>
      </trkpt>
      <trkpt lat="47.97467" lon="7.08173">
        <ele>1029.4</ele>
        <time>2021-01-16T09:23:15.000Z</time>
      </trkpt>
      <trkpt lat="47.97464" lon="7.08186">
        <ele>1029.8</ele>
        <time>2021-01-16T09:23:27.000Z</time>
      </trkpt>
      <trkpt lat="47.97462" lon="7.082">
        <ele>1029.7</ele>
        <time>2021-01-16T09:23:38.000Z</time>
      </trkpt>
      <trkpt lat="47.97461" lon="7.08214">
        <ele>1029.3</ele>
        <time>2021-01-16T09:23:49.000Z</time>
      </trkpt>
      <trkpt lat="47.97459" lon="7.08228">
        <ele>1029.1</ele>
        <time>2021-01-16T09:24:01.000Z</time>
      </trkpt>
      <trkpt lat="47.97456" lon="7.08241">
        <ele>1029.6</ele>
        <time>2021-01-16T09:24:13.000Z</time>
      </trkpt>
      <trkpt lat="47.97453" lon="7.08255">
        <ele>1029.9</ele>
        <time>2021-01-16T09:24:26.000Z</time>
      </trkpt>
      <trkpt lat="47.97452" lon="7.08269">
        <ele>1029.3</ele>
        <time>2021-01-16T09:24:36.000Z</time>
      </trkpt>
      <trkpt lat="47.97448" lon="7.08282">
        <ele>1029.8</ele>
        <time>2021-01-16T09:24:49.000Z</time>
      </trkpt>
      <trkpt lat="47.97445" lon="7.08295">
        <ele>1030.2</ele>
        <time>2021-01-16T09:24:57.000Z</time>
      </trkpt>
      <trkpt lat="47.9744" lon="7.08306">
        <ele>1031.5</ele>
        <time>2021-01-16T09:25:07.000Z</time>
      </trkpt>
      <trkpt lat="47.97437" lon="7.08319">
        <ele>1032</ele>
        <time>2021-01-16T09:25:18.000Z</time>
      </trkpt>
      <trkpt lat="47.97434" lon="7.08332">
        <ele>1032.7</ele>
        <time>2021-01-16T09:25:30.000Z</time>
      </trkpt>
      <trkpt lat="47.9743" lon="7.08345">
        <ele>1033</ele>
        <time>2021-01-16T09:25:43.000Z</time>
      </trkpt>
      <trkpt lat="47.97428" lon="7.0836">
        <ele>1032.9</ele>
        <time>2021-01-16T09:25:57.000Z</time>
      </trkpt>
      <trkpt lat="47.97424" lon="7.08373">
        <ele>1033.3</ele>
        <time>2021-01-16T09:26:09.000Z</time>
      </trkpt>
      <trkpt lat="47.97419" lon="7.08385">
        <ele>1034.1</ele>
        <time>2021-01-16T09:26:22.000Z</time>
      </trkpt>
      <trkpt lat="47.97417" lon="7.08398">
        <ele>1033.8</ele>
        <time>2021-01-16T09:26:34.000Z</time>
      </trkpt>
      <trkpt lat="47.97412" lon="7.0841">
        <ele>1034.4</ele>
        <time>2021-01-16T09:26:45.000Z</time>
      </trkpt>
      <trkpt lat="47.97406" lon="7.08421">
        <ele>1035.5</ele>
        <time>2021-01-16T09:26:59.000Z</time>
      </trkpt>
      <trkpt lat="47.97399" lon="7.08432">
        <ele>1036.5</ele>
        <time>2021-01-16T09:27:13.000Z</time>
      </trkpt>
      <trkpt lat="47.97393" lon="7.08442">
        <ele>1037.8</ele>
        <time>2021-01-16T09:27:24.000Z</time>
      </trkpt>
      <trkpt lat="47.97388" lon="7.08454">
        <ele>1038</ele>
        <time>2021-01-16T09:27:36.000Z</time>
      </trkpt>
      <trkpt lat="47.97382" lon="7.08464">
        <ele>1039.3</ele>
        <time>2021-01-16T09:27:50.000Z</time>
      </trkpt>
      <trkpt lat="47.97377" lon="7.08475">
        <ele>1040.1</ele>
        <time>2021-01-16T09:28:01.000Z</time>
      </trkpt>
      <trkpt lat="47.97372" lon="7.08487">
        <ele>1040.7</ele>
        <time>2021-01-16T09:28:13.000Z</time>
      </trkpt>
      <trkpt lat="47.97366" lon="7.08498">
        <ele>1041.8</ele>
        <time>2021-01-16T09:28:27.000Z</time>
      </trkpt>
      <trkpt lat="47.97358" lon="7.08508">
        <ele>1043</ele>
        <time>2021-01-16T09:28:38.000Z</time>
      </trkpt>
      <trkpt lat="47.97352" lon="7.08518">
        <ele>1043.8</ele>
        <time>2021-01-16T09:28:49.000Z</time>
      </trkpt>
      <trkpt lat="47.97345" lon="7.08527">
        <ele>1044.7</ele>
        <time>2021-01-16T09:29:02.000Z</time>
      </trkpt>
      <trkpt lat="47.97337" lon="7.08535">
        <ele>1045.8</ele>
        <time>2021-01-16T09:29:14.000Z</time>
      </trkpt>
      <trkpt lat="47.97329" lon="7.08543">
        <ele>1046.3</ele>
        <time>2021-01-16T09:29:26.000Z</time>
      </trkpt>
      <trkpt lat="47.9732" lon="7.08545">
        <ele>1046.9</ele>
        <time>2021-01-16T09:29:41.000Z</time>
      </trkpt>
      <trkpt lat="47.97311" lon="7.08547">
        <ele>1047.5</ele>
        <time>2021-01-16T09:29:56.000Z</time>
      </trkpt>
      <trkpt lat="47.97302" lon="7.08549">
        <ele>1048.1</ele>
        <time>2021-01-16T09:30:38.000Z</time>
      </trkpt>
      <trkpt lat="47.97293" lon="7.08542">
        <ele>1050.7</ele>
        <time>2021-01-16T09:30:55.000Z</time>
      </trkpt>
      <trkpt lat="47.97283" lon="7.08535">
        <ele>1053.8</ele>
        <time>2021-01-16T09:31:19.000Z</time>
      </trkpt>
      <trkpt lat="47.97273" lon="7.08534">
        <ele>1055.5</ele>
        <time>2021-01-16T09:31:49.000Z</time>
      </trkpt>
      <trkpt lat="47.97265" lon="7.08528">
        <ele>1058.2</ele>
        <time>2021-01-16T09:32:02.000Z</time>
      </trkpt>
      <trkpt lat="47.97256" lon="7.08527">
        <ele>1059.9</ele>
        <time>2021-01-16T09:32:15.000Z</time>
      </trkpt>
      <trkpt lat="47.97247" lon="7.08521">
        <ele>1062.3</ele>
        <time>2021-01-16T09:32:28.000Z</time>
      </trkpt>
      <trkpt lat="47.97239" lon="7.08515">
        <ele>1064.3</ele>
        <time>2021-01-16T09:32:40.000Z</time>
      </trkpt>
      <trkpt lat="47.97229" lon="7.08513">
        <ele>1064.8</ele>
        <time>2021-01-16T09:33:10.000Z</time>
      </trkpt>
      <trkpt lat="47.9722" lon="7.08508">
        <ele>1066.2</ele>
        <time>2021-01-16T09:33:29.000Z</time>
      </trkpt>
      <trkpt lat="47.97212" lon="7.085">
        <ele>1068.6</ele>
        <time>2021-01-16T09:33:50.000Z</time>
      </trkpt>
      <trkpt lat="47.97204" lon="7.08492">
        <ele>1070.6</ele>
        <time>2021-01-16T09:34:04.000Z</time>
      </trkpt>
      <trkpt lat="47.97195" lon="7.08489">
        <ele>1071.5</ele>
        <time>2021-01-16T09:34:30.000Z</time>
      </trkpt>
      <trkpt lat="47.97186" lon="7.08484">
        <ele>1073.1</ele>
        <time>2021-01-16T09:34:51.000Z</time>
      </trkpt>
      <trkpt lat="47.97177" lon="7.08479">
        <ele>1074.7</ele>
        <time>2021-01-16T09:35:06.000Z</time>
      </trkpt>
      <trkpt lat="47.97169" lon="7.08474">
        <ele>1076.4</ele>
        <time>2021-01-16T09:35:23.000Z</time>
      </trkpt>
      <trkpt lat="47.97161" lon="7.08468">
        <ele>1078.9</ele>
        <time>2021-01-16T09:35:36.000Z</time>
      </trkpt>
      <trkpt lat="47.9715" lon="7.08462">
        <ele>1081.9</ele>
        <time>2021-01-16T09:36:09.000Z</time>
      </trkpt>
      <trkpt lat="47.97141" lon="7.08457">
        <ele>1084.4</ele>
        <time>2021-01-16T09:36:33.000Z</time>
      </trkpt>
      <trkpt lat="47.97132" lon="7.08457">
        <ele>1085.4</ele>
        <time>2021-01-16T09:36:56.000Z</time>
      </trkpt>
      <trkpt lat="47.97123" lon="7.08456">
        <ele>1086.8</ele>
        <time>2021-01-16T09:37:13.000Z</time>
      </trkpt>
      <trkpt lat="47.97114" lon="7.08459">
        <ele>1086.8</ele>
        <time>2021-01-16T09:37:30.000Z</time>
      </trkpt>
      <trkpt lat="47.97105" lon="7.08464">
        <ele>1085.9</ele>
        <time>2021-01-16T09:37:39.000Z</time>
      </trkpt>
      <trkpt lat="47.97096" lon="7.08469">
        <ele>1085.1</ele>
        <time>2021-01-16T09:37:49.000Z</time>
      </trkpt>
      <trkpt lat="47.97088" lon="7.08472">
        <ele>1084.7</ele>
        <time>2021-01-16T09:37:59.000Z</time>
      </trkpt>
      <trkpt lat="47.97079" lon="7.08477">
        <ele>1084</ele>
        <time>2021-01-16T09:38:09.000Z</time>
      </trkpt>
      <trkpt lat="47.9707" lon="7.08483">
        <ele>1084</ele>
        <time>2021-01-16T09:38:19.000Z</time>
      </trkpt>
      <trkpt lat="47.97061" lon="7.08488">
        <ele>1083.8</ele>
        <time>2021-01-16T09:38:29.000Z</time>
      </trkpt>
      <trkpt lat="47.97053" lon="7.08495">
        <ele>1082.9</ele>
        <time>2021-01-16T09:38:42.000Z</time>
      </trkpt>
      <trkpt lat="47.97045" lon="7.08502">
        <ele>1082.3</ele>
        <time>2021-01-16T09:38:54.000Z</time>
      </trkpt>
      <trkpt lat="47.97036" lon="7.08506">
        <ele>1083.3</ele>
        <time>2021-01-16T09:39:08.000Z</time>
      </trkpt>
      <trkpt lat="47.97028" lon="7.08513">
        <ele>1083.8</ele>
        <time>2021-01-16T09:39:18.000Z</time>
      </trkpt>
      <trkpt lat="47.97019" lon="7.08518">
        <ele>1084.6</ele>
        <time>2021-01-16T09:39:28.000Z</time>
      </trkpt>
      <trkpt lat="47.97011" lon="7.08526">
        <ele>1084.8</ele>
        <time>2021-01-16T09:39:38.000Z</time>
      </trkpt>
      <trkpt lat="47.97003" lon="7.08534">
        <ele>1085.1</ele>
        <time>2021-01-16T09:39:48.000Z</time>
      </trkpt>
      <trkpt lat="47.96995" lon="7.08542">
        <ele>1086.5</ele>
        <time>2021-01-16T09:40:02.000Z</time>
      </trkpt>
      <trkpt lat="47.96987" lon="7.0855">
        <ele>1088.1</ele>
        <time>2021-01-16T09:40:14.000Z</time>
      </trkpt>
      <trkpt lat="47.96983" lon="7.08561">
        <ele>1087.5</ele>
        <time>2021-01-16T09:40:24.000Z</time>
      </trkpt>
      <trkpt lat="47.96984" lon="7.08575">
        <ele>1084.4</ele>
        <time>2021-01-16T09:40:39.000Z</time>
      </trkpt>
      <trkpt lat="47.96977" lon="7.08585">
        <ele>1085</ele>
        <time>2021-01-16T09:46:28.000Z</time>
      </trkpt>
      <trkpt lat="47.96971" lon="7.08596">
        <ele>1085.4</ele>
        <time>2021-01-16T09:46:38.000Z</time>
      </trkpt>
      <trkpt lat="47.96965" lon="7.08607">
        <ele>1085.5</ele>
        <time>2021-01-16T09:46:51.000Z</time>
      </trkpt>
      <trkpt lat="47.9696" lon="7.08618">
        <ele>1085.4</ele>
        <time>2021-01-16T09:47:01.000Z</time>
      </trkpt>
      <trkpt lat="47.96953" lon="7.08628">
        <ele>1086.6</ele>
        <time>2021-01-16T09:47:12.000Z</time>
      </trkpt>
      <trkpt lat="47.96944" lon="7.08633">
        <ele>1089.4</ele>
        <time>2021-01-16T09:49:33.000Z</time>
      </trkpt>
      <trkpt lat="47.96938" lon="7.08644">
        <ele>1090</ele>
        <time>2021-01-16T09:49:45.000Z</time>
      </trkpt>
      <trkpt lat="47.96932" lon="7.08655">
        <ele>1090.7</ele>
        <time>2021-01-16T09:49:58.000Z</time>
      </trkpt>
      <trkpt lat="47.96925" lon="7.08664">
        <ele>1091.9</ele>
        <time>2021-01-16T09:50:12.000Z</time>
      </trkpt>
      <trkpt lat="47.96923" lon="7.08678">
        <ele>1091.3</ele>
        <time>2021-01-16T09:50:27.000Z</time>
      </trkpt>
      <trkpt lat="47.96915" lon="7.08686">
        <ele>1093.9</ele>
        <time>2021-01-16T09:50:55.000Z</time>
      </trkpt>
      <trkpt lat="47.96909" lon="7.08697">
        <ele>1095.9</ele>
        <time>2021-01-16T09:52:48.000Z</time>
      </trkpt>
      <trkpt lat="47.96902" lon="7.08706">
        <ele>1098.5</ele>
        <time>2021-01-16T09:53:01.000Z</time>
      </trkpt>
      <trkpt lat="47.96897" lon="7.08718">
        <ele>1099.8</ele>
        <time>2021-01-16T09:53:13.000Z</time>
      </trkpt>
      <trkpt lat="47.96892" lon="7.0873">
        <ele>1100.7</ele>
        <time>2021-01-16T09:53:27.000Z</time>
      </trkpt>
      <trkpt lat="47.96891" lon="7.08744">
        <ele>1099.7</ele>
        <time>2021-01-16T09:53:42.000Z</time>
      </trkpt>
      <trkpt lat="47.96887" lon="7.08757">
        <ele>1100.7</ele>
        <time>2021-01-16T09:53:55.000Z</time>
      </trkpt>
      <trkpt lat="47.96882" lon="7.08768">
        <ele>1102.3</ele>
        <time>2021-01-16T09:54:09.000Z</time>
      </trkpt>
      <trkpt lat="47.96877" lon="7.0878">
        <ele>1104</ele>
        <time>2021-01-16T09:54:21.000Z</time>
      </trkpt>
      <trkpt lat="47.96873" lon="7.08792">
        <ele>1105.3</ele>
        <time>2021-01-16T09:54:56.000Z</time>
      </trkpt>
      <trkpt lat="47.9687" lon="7.08805">
        <ele>1106</ele>
        <time>2021-01-16T09:55:06.000Z</time>
      </trkpt>
      <trkpt lat="47.96866" lon="7.08818">
        <ele>1107</ele>
        <time>2021-01-16T09:55:18.000Z</time>
      </trkpt>
      <trkpt lat="47.96862" lon="7.08831">
        <ele>1108</ele>
        <time>2021-01-16T09:55:33.000Z</time>
      </trkpt>
      <trkpt lat="47.96861" lon="7.08845">
        <ele>1108.4</ele>
        <time>2021-01-16T09:55:45.000Z</time>
      </trkpt>
      <trkpt lat="47.96858" lon="7.08858">
        <ele>1109.4</ele>
        <time>2021-01-16T09:55:57.000Z</time>
      </trkpt>
      <trkpt lat="47.96854" lon="7.08871">
        <ele>1111.6</ele>
        <time>2021-01-16T09:56:13.000Z</time>
      </trkpt>
      <trkpt lat="47.96852" lon="7.08885">
        <ele>1112.3</ele>
        <time>2021-01-16T09:56:27.000Z</time>
      </trkpt>
      <trkpt lat="47.9685" lon="7.08899">
        <ele>1113.1</ele>
        <time>2021-01-16T09:56:42.000Z</time>
      </trkpt>
      <trkpt lat="47.96848" lon="7.08912">
        <ele>1113.8</ele>
        <time>2021-01-16T09:56:54.000Z</time>
      </trkpt>
      <trkpt lat="47.96845" lon="7.08926">
        <ele>1115.4</ele>
        <time>2021-01-16T09:57:09.000Z</time>
      </trkpt>
      <trkpt lat="47.96843" lon="7.0894">
        <ele>1116.7</ele>
        <time>2021-01-16T09:57:22.000Z</time>
      </trkpt>
      <trkpt lat="47.9684" lon="7.08954">
        <ele>1117.7</ele>
        <time>2021-01-16T09:57:36.000Z</time>
      </trkpt>
      <trkpt lat="47.96839" lon="7.08967">
        <ele>1118.5</ele>
        <time>2021-01-16T09:57:47.000Z</time>
      </trkpt>
      <trkpt lat="47.96837" lon="7.08981">
        <ele>1119.4</ele>
        <time>2021-01-16T09:57:58.000Z</time>
      </trkpt>
      <trkpt lat="47.96834" lon="7.08993">
        <ele>1120.9</ele>
        <time>2021-01-16T09:58:11.000Z</time>
      </trkpt>
      <trkpt lat="47.96832" lon="7.09007">
        <ele>1121.7</ele>
        <time>2021-01-16T09:58:26.000Z</time>
      </trkpt>
      <trkpt lat="47.96833" lon="7.09021">
        <ele>1121.4</ele>
        <time>2021-01-16T09:59:15.000Z</time>
      </trkpt>
      <trkpt lat="47.96834" lon="7.09036">
        <ele>1121.3</ele>
        <time>2021-01-16T09:59:26.000Z</time>
      </trkpt>
      <trkpt lat="47.96829" lon="7.09047">
        <ele>1123.7</ele>
        <time>2021-01-16T09:59:52.000Z</time>
      </trkpt>
      <trkpt lat="47.96826" lon="7.0906">
        <ele>1125.1</ele>
        <time>2021-01-16T10:00:07.000Z</time>
      </trkpt>
      <trkpt lat="47.96826" lon="7.09075">
        <ele>1125.4</ele>
        <time>2021-01-16T10:00:20.000Z</time>
      </trkpt>
      <trkpt lat="47.96825" lon="7.09088">
        <ele>1126.3</ele>
        <time>2021-01-16T10:00:33.000Z</time>
      </trkpt>
      <trkpt lat="47.96823" lon="7.09102">
        <ele>1127.8</ele>
        <time>2021-01-16T10:00:46.000Z</time>
      </trkpt>
      <trkpt lat="47.96824" lon="7.09116">
        <ele>1127.8</ele>
        <time>2021-01-16T10:01:07.000Z</time>
      </trkpt>
      <trkpt lat="47.96825" lon="7.0913">
        <ele>1128.3</ele>
        <time>2021-01-16T10:01:20.000Z</time>
      </trkpt>
      <trkpt lat="47.96825" lon="7.09144">
        <ele>1129</ele>
        <time>2021-01-16T10:02:16.000Z</time>
      </trkpt>
      <trkpt lat="47.96828" lon="7.09157">
        <ele>1128.6</ele>
        <time>2021-01-16T10:02:26.000Z</time>
      </trkpt>
      <trkpt lat="47.9683" lon="7.09171">
        <ele>1128.4</ele>
        <time>2021-01-16T10:02:36.000Z</time>
      </trkpt>
      <trkpt lat="47.96832" lon="7.09184">
        <ele>1128.5</ele>
        <time>2021-01-16T10:02:49.000Z</time>
      </trkpt>
      <trkpt lat="47.96833" lon="7.09198">
        <ele>1129.1</ele>
        <time>2021-01-16T10:03:02.000Z</time>
      </trkpt>
      <trkpt lat="47.96837" lon="7.09211">
        <ele>1128.2</ele>
        <time>2021-01-16T10:03:13.000Z</time>
      </trkpt>
      <trkpt lat="47.96842" lon="7.09222">
        <ele>1126.8</ele>
        <time>2021-01-16T10:03:27.000Z</time>
      </trkpt>
      <trkpt lat="47.96845" lon="7.09235">
        <ele>1126.3</ele>
        <time>2021-01-16T10:03:50.000Z</time>
      </trkpt>
      <trkpt lat="47.96848" lon="7.09248">
        <ele>1126</ele>
        <time>2021-01-16T10:03:58.000Z</time>
      </trkpt>
      <trkpt lat="47.96852" lon="7.09262">
        <ele>1126.6</ele>
        <time>2021-01-16T10:04:12.000Z</time>
      </trkpt>
      <trkpt lat="47.96853" lon="7.09275">
        <ele>1128.1</ele>
        <time>2021-01-16T10:04:22.000Z</time>
      </trkpt>
      <trkpt lat="47.96856" lon="7.0929">
        <ele>1129.4</ele>
        <time>2021-01-16T10:04:37.000Z</time>
      </trkpt>
      <trkpt lat="47.96862" lon="7.09302">
        <ele>1129.1</ele>
        <time>2021-01-16T10:04:48.000Z</time>
      </trkpt>
      <trkpt lat="47.9687" lon="7.09306">
        <ele>1126.6</ele>
        <time>2021-01-16T10:06:03.000Z</time>
      </trkpt>
      <trkpt lat="47.96875" lon="7.09319">
        <ele>1126.7</ele>
        <time>2021-01-16T10:06:13.000Z</time>
      </trkpt>
      <trkpt lat="47.9688" lon="7.0933">
        <ele>1126.6</ele>
        <time>2021-01-16T10:06:25.000Z</time>
      </trkpt>
      <trkpt lat="47.96881" lon="7.09344">
        <ele>1128.2</ele>
        <time>2021-01-16T10:06:37.000Z</time>
      </trkpt>
      <trkpt lat="47.96889" lon="7.09352">
        <ele>1126.5</ele>
        <time>2021-01-16T10:07:24.000Z</time>
      </trkpt>
      <trkpt lat="47.96897" lon="7.09358">
        <ele>1124.4</ele>
        <time>2021-01-16T10:07:31.000Z</time>
      </trkpt>
      <trkpt lat="47.96904" lon="7.09367">
        <ele>1123.6</ele>
        <time>2021-01-16T10:07:40.000Z</time>
      </trkpt>
      <trkpt lat="47.96908" lon="7.09379">
        <ele>1124</ele>
        <time>2021-01-16T10:07:52.000Z</time>
      </trkpt>
      <trkpt lat="47.9691" lon="7.09392">
        <ele>1125.6</ele>
        <time>2021-01-16T10:08:04.000Z</time>
      </trkpt>
      <trkpt lat="47.96917" lon="7.09403">
        <ele>1125.2</ele>
        <time>2021-01-16T10:08:23.000Z</time>
      </trkpt>
      <trkpt lat="47.96923" lon="7.09415">
        <ele>1124.9</ele>
        <time>2021-01-16T10:08:43.000Z</time>
      </trkpt>
      <trkpt lat="47.96929" lon="7.09427">
        <ele>1122.5</ele>
        <time>2021-01-16T10:08:53.000Z</time>
      </trkpt>
      <trkpt lat="47.96932" lon="7.0944">
        <ele>1121.2</ele>
        <time>2021-01-16T10:09:04.000Z</time>
      </trkpt>
      <trkpt lat="47.96936" lon="7.09452">
        <ele>1119.9</ele>
        <time>2021-01-16T10:09:14.000Z</time>
      </trkpt>
      <trkpt lat="47.96938" lon="7.09467">
        <ele>1119.8</ele>
        <time>2021-01-16T10:09:22.000Z</time>
      </trkpt>
      <trkpt lat="47.96939" lon="7.09481">
        <ele>1119.7</ele>
        <time>2021-01-16T10:09:33.000Z</time>
      </trkpt>
      <trkpt lat="47.9694" lon="7.09496">
        <ele>1120.1</ele>
        <time>2021-01-16T10:09:43.000Z</time>
      </trkpt>
      <trkpt lat="47.96941" lon="7.09509">
        <ele>1120</ele>
        <time>2021-01-16T10:09:54.000Z</time>
      </trkpt>
      <trkpt lat="47.9694" lon="7.09523">
        <ele>1120.7</ele>
        <time>2021-01-16T10:10:07.000Z</time>
      </trkpt>
      <trkpt lat="47.96941" lon="7.09537">
        <ele>1120.6</ele>
        <time>2021-01-16T10:10:20.000Z</time>
      </trkpt>
      <trkpt lat="47.96942" lon="7.09551">
        <ele>1120.8</ele>
        <time>2021-01-16T10:10:33.000Z</time>
      </trkpt>
      <trkpt lat="47.96945" lon="7.09565">
        <ele>1120.1</ele>
        <time>2021-01-16T10:10:46.000Z</time>
      </trkpt>
      <trkpt lat="47.96945" lon="7.0958">
        <ele>1120.5</ele>
        <time>2021-01-16T10:11:06.000Z</time>
      </trkpt>
      <trkpt lat="47.96944" lon="7.09594">
        <ele>1120.6</ele>
        <time>2021-01-16T10:11:17.000Z</time>
      </trkpt>
      <trkpt lat="47.96947" lon="7.09608">
        <ele>1119.8</ele>
        <time>2021-01-16T10:11:26.000Z</time>
      </trkpt>
      <trkpt lat="47.9695" lon="7.09622">
        <ele>1118.9</ele>
        <time>2021-01-16T10:11:35.000Z</time>
      </trkpt>
      <trkpt lat="47.96949" lon="7.09636">
        <ele>1119.2</ele>
        <time>2021-01-16T10:11:50.000Z</time>
      </trkpt>
      <trkpt lat="47.96948" lon="7.09649">
        <ele>1119.5</ele>
        <time>2021-01-16T10:12:04.000Z</time>
      </trkpt>
      <trkpt lat="47.96953" lon="7.09661">
        <ele>1118.4</ele>
        <time>2021-01-16T10:12:36.000Z</time>
      </trkpt>
      <trkpt lat="47.96954" lon="7.09675">
        <ele>1118.4</ele>
        <time>2021-01-16T10:12:58.000Z</time>
      </trkpt>
      <trkpt lat="47.96956" lon="7.09689">
        <ele>1118.4</ele>
        <time>2021-01-16T10:13:08.000Z</time>
      </trkpt>
      <trkpt lat="47.96962" lon="7.09699">
        <ele>1117.8</ele>
        <time>2021-01-16T10:16:08.000Z</time>
      </trkpt>
      <trkpt lat="47.96963" lon="7.09713">
        <ele>1118.1</ele>
        <time>2021-01-16T10:16:19.000Z</time>
      </trkpt>
      <trkpt lat="47.96957" lon="7.09732">
        <ele>1119.1</ele>
        <time>2021-01-16T10:18:45.000Z</time>
      </trkpt>
      <trkpt lat="47.96953" lon="7.09745">
        <ele>1119.7</ele>
        <time>2021-01-16T10:18:59.000Z</time>
      </trkpt>
      <trkpt lat="47.96951" lon="7.09759">
        <ele>1119.9</ele>
        <time>2021-01-16T10:19:12.000Z</time>
      </trkpt>
      <trkpt lat="47.96949" lon="7.09772">
        <ele>1120.1</ele>
        <time>2021-01-16T10:19:24.000Z</time>
      </trkpt>
      <trkpt lat="47.96945" lon="7.09785">
        <ele>1120.2</ele>
        <time>2021-01-16T10:19:39.000Z</time>
      </trkpt>
      <trkpt lat="47.96944" lon="7.09799">
        <ele>1120.1</ele>
        <time>2021-01-16T10:24:22.000Z</time>
      </trkpt>
      <trkpt lat="47.96942" lon="7.09812">
        <ele>1120.1</ele>
        <time>2021-01-16T10:24:34.000Z</time>
      </trkpt>
      <trkpt lat="47.96942" lon="7.09826">
        <ele>1120</ele>
        <time>2021-01-16T10:24:44.000Z</time>
      </trkpt>
      <trkpt lat="47.96943" lon="7.09839">
        <ele>1119.8</ele>
        <time>2021-01-16T10:24:55.000Z</time>
      </trkpt>
      <trkpt lat="47.96942" lon="7.09853">
        <ele>1119.4</ele>
        <time>2021-01-16T10:27:41.000Z</time>
      </trkpt>
      <trkpt lat="47.96941" lon="7.09866">
        <ele>1118.9</ele>
        <time>2021-01-16T10:34:17.000Z</time>
      </trkpt>
      <trkpt lat="47.96946" lon="7.09878">
        <ele>1118.8</ele>
        <time>2021-01-16T10:49:45.000Z</time>
      </trkpt>
      <trkpt lat="47.96949" lon="7.09891">
        <ele>1118.7</ele>
        <time>2021-01-16T10:49:58.000Z</time>
      </trkpt>
      <trkpt lat="47.96954" lon="7.09904">
        <ele>1118.8</ele>
        <time>2021-01-16T10:50:09.000Z</time>
      </trkpt>
      <trkpt lat="47.96958" lon="7.09916">
        <ele>1118.9</ele>
        <time>2021-01-16T10:50:21.000Z</time>
      </trkpt>
      <trkpt lat="47.9696" lon="7.09931">
        <ele>1118.2</ele>
        <time>2021-01-16T10:50:46.000Z</time>
      </trkpt>
      <trkpt lat="47.96964" lon="7.09944">
        <ele>1117.9</ele>
        <time>2021-01-16T10:50:58.000Z</time>
      </trkpt>
      <trkpt lat="47.96968" lon="7.09956">
        <ele>1117.7</ele>
        <time>2021-01-16T10:51:09.000Z</time>
      </trkpt>
      <trkpt lat="47.96973" lon="7.09968">
        <ele>1117.7</ele>
        <time>2021-01-16T10:51:18.000Z</time>
      </trkpt>
      <trkpt lat="47.96976" lon="7.09981">
        <ele>1117.6</ele>
        <time>2021-01-16T10:51:30.000Z</time>
      </trkpt>
      <trkpt lat="47.96983" lon="7.09992">
        <ele>1118.2</ele>
        <time>2021-01-16T10:51:40.000Z</time>
      </trkpt>
      <trkpt lat="47.96989" lon="7.10002">
        <ele>1118.9</ele>
        <time>2021-01-16T10:51:52.000Z</time>
      </trkpt>
      <trkpt lat="47.96976" lon="7.09999">
        <ele>1116.7</ele>
        <time>2021-01-16T10:53:56.000Z</time>
      </trkpt>
      <trkpt lat="47.96985" lon="7.1">
        <ele>1118.3</ele>
        <time>2021-01-16T10:54:10.000Z</time>
      </trkpt>
      <trkpt lat="47.96991" lon="7.10011">
        <ele>1119.1</ele>
        <time>2021-01-16T10:54:17.000Z</time>
      </trkpt>
      <trkpt lat="47.96995" lon="7.10025">
        <ele>1119.7</ele>
        <time>2021-01-16T10:54:23.000Z</time>
      </trkpt>
      <trkpt lat="47.97" lon="7.10039">
        <ele>1120.6</ele>
        <time>2021-01-16T10:54:29.000Z</time>
      </trkpt>
      <trkpt lat="47.97006" lon="7.10053">
        <ele>1121.1</ele>
        <time>2021-01-16T10:54:34.000Z</time>
      </trkpt>
      <trkpt lat="47.97013" lon="7.10062">
        <ele>1122</ele>
        <time>2021-01-16T10:54:41.000Z</time>
      </trkpt>
      <trkpt lat="47.97016" lon="7.10076">
        <ele>1122.6</ele>
        <time>2021-01-16T10:55:01.000Z</time>
      </trkpt>
      <trkpt lat="47.97019" lon="7.10088">
        <ele>1122.8</ele>
        <time>2021-01-16T10:55:12.000Z</time>
      </trkpt>
      <trkpt lat="47.97023" lon="7.10102">
        <ele>1122.6</ele>
        <time>2021-01-16T10:58:43.000Z</time>
      </trkpt>
      <trkpt lat="47.97028" lon="7.10114">
        <ele>1123</ele>
        <time>2021-01-16T10:58:54.000Z</time>
      </trkpt>
      <trkpt lat="47.97032" lon="7.10127">
        <ele>1123.2</ele>
        <time>2021-01-16T10:59:19.000Z</time>
      </trkpt>
      <trkpt lat="47.97038" lon="7.10138">
        <ele>1124.1</ele>
        <time>2021-01-16T10:59:32.000Z</time>
      </trkpt>
      <trkpt lat="47.97044" lon="7.10149">
        <ele>1125.1</ele>
        <time>2021-01-16T10:59:44.000Z</time>
      </trkpt>
      <trkpt lat="47.9705" lon="7.1016">
        <ele>1126.5</ele>
        <time>2021-01-16T11:00:43.000Z</time>
      </trkpt>
      <trkpt lat="47.97056" lon="7.10171">
        <ele>1127.8</ele>
        <time>2021-01-16T11:01:06.000Z</time>
      </trkpt>
      <trkpt lat="47.97064" lon="7.1018">
        <ele>1130</ele>
        <time>2021-01-16T11:01:17.000Z</time>
      </trkpt>
      <trkpt lat="47.97071" lon="7.1017">
        <ele>1132.4</ele>
        <time>2021-01-16T11:01:37.000Z</time>
      </trkpt>
      <trkpt lat="47.97077" lon="7.10161">
        <ele>1134.2</ele>
        <time>2021-01-16T11:01:51.000Z</time>
      </trkpt>
      <trkpt lat="47.97085" lon="7.10152">
        <ele>1135.8</ele>
        <time>2021-01-16T11:02:21.000Z</time>
      </trkpt>
      <trkpt lat="47.97094" lon="7.10151">
        <ele>1136.5</ele>
        <time>2021-01-16T11:02:35.000Z</time>
      </trkpt>
      <trkpt lat="47.97103" lon="7.10155">
        <ele>1137.4</ele>
        <time>2021-01-16T11:02:49.000Z</time>
      </trkpt>
      <trkpt lat="47.97112" lon="7.10159">
        <ele>1138.4</ele>
        <time>2021-01-16T11:03:04.000Z</time>
      </trkpt>
      <trkpt lat="47.97119" lon="7.10169">
        <ele>1139.5</ele>
        <time>2021-01-16T11:03:17.000Z</time>
      </trkpt>
      <trkpt lat="47.97124" lon="7.10181">
        <ele>1140.3</ele>
        <time>2021-01-16T11:03:29.000Z</time>
      </trkpt>
      <trkpt lat="47.97129" lon="7.10193">
        <ele>1141.2</ele>
        <time>2021-01-16T11:03:41.000Z</time>
      </trkpt>
      <trkpt lat="47.97133" lon="7.10205">
        <ele>1142.3</ele>
        <time>2021-01-16T11:03:52.000Z</time>
      </trkpt>
      <trkpt lat="47.97139" lon="7.10217">
        <ele>1143.5</ele>
        <time>2021-01-16T11:04:05.000Z</time>
      </trkpt>
      <trkpt lat="47.97144" lon="7.10229">
        <ele>1144.8</ele>
        <time>2021-01-16T11:04:17.000Z</time>
      </trkpt>
      <trkpt lat="47.97149" lon="7.10241">
        <ele>1146.3</ele>
        <time>2021-01-16T11:04:28.000Z</time>
      </trkpt>
      <trkpt lat="47.97153" lon="7.10254">
        <ele>1147.8</ele>
        <time>2021-01-16T11:04:40.000Z</time>
      </trkpt>
      <trkpt lat="47.97158" lon="7.10266">
        <ele>1149.6</ele>
        <time>2021-01-16T11:04:53.000Z</time>
      </trkpt>
      <trkpt lat="47.97162" lon="7.10278">
        <ele>1151.3</ele>
        <time>2021-01-16T11:05:04.000Z</time>
      </trkpt>
      <trkpt lat="47.97167" lon="7.1029">
        <ele>1153.3</ele>
        <time>2021-01-16T11:05:19.000Z</time>
      </trkpt>
      <trkpt lat="47.97173" lon="7.103">
        <ele>1154.7</ele>
        <time>2021-01-16T11:05:35.000Z</time>
      </trkpt>
      <trkpt lat="47.97181" lon="7.10308">
        <ele>1156</ele>
        <time>2021-01-16T11:05:48.000Z</time>
      </trkpt>
      <trkpt lat="47.9719" lon="7.10313">
        <ele>1157.2</ele>
        <time>2021-01-16T11:07:48.000Z</time>
      </trkpt>
      <trkpt lat="47.97195" lon="7.10324">
        <ele>1159</ele>
        <time>2021-01-16T11:07:57.000Z</time>
      </trkpt>
      <trkpt lat="47.97201" lon="7.10335">
        <ele>1160.9</ele>
        <time>2021-01-16T11:08:08.000Z</time>
      </trkpt>
      <trkpt lat="47.97207" lon="7.10345">
        <ele>1163.1</ele>
        <time>2021-01-16T11:08:23.000Z</time>
      </trkpt>
      <trkpt lat="47.97209" lon="7.10359">
        <ele>1165.4</ele>
        <time>2021-01-16T11:08:39.000Z</time>
      </trkpt>
      <trkpt lat="47.97204" lon="7.1037">
        <ele>1166.2</ele>
        <time>2021-01-16T11:08:49.000Z</time>
      </trkpt>
      <trkpt lat="47.97202" lon="7.10384">
        <ele>1167.9</ele>
        <time>2021-01-16T11:09:01.000Z</time>
      </trkpt>
      <trkpt lat="47.97201" lon="7.10397">
        <ele>1169.5</ele>
        <time>2021-01-16T11:09:14.000Z</time>
      </trkpt>
      <trkpt lat="47.97207" lon="7.10408">
        <ele>1172.4</ele>
        <time>2021-01-16T11:09:28.000Z</time>
      </trkpt>
      <trkpt lat="47.97216" lon="7.10412">
        <ele>1175</ele>
        <time>2021-01-16T11:09:40.000Z</time>
      </trkpt>
      <trkpt lat="47.97225" lon="7.10411">
        <ele>1176.9</ele>
        <time>2021-01-16T11:10:47.000Z</time>
      </trkpt>
      <trkpt lat="47.97227" lon="7.10425">
        <ele>1179.5</ele>
        <time>2021-01-16T11:11:15.000Z</time>
      </trkpt>
      <trkpt lat="47.97232" lon="7.1044">
        <ele>1182.9</ele>
        <time>2021-01-16T11:12:06.000Z</time>
      </trkpt>
      <trkpt lat="47.97229" lon="7.10453">
        <ele>1183.8</ele>
        <time>2021-01-16T11:12:22.000Z</time>
      </trkpt>
      <trkpt lat="47.97226" lon="7.10466">
        <ele>1185</ele>
        <time>2021-01-16T11:12:32.000Z</time>
      </trkpt>
      <trkpt lat="47.97235" lon="7.10463">
        <ele>1187</ele>
        <time>2021-01-16T11:13:15.000Z</time>
      </trkpt>
      <trkpt lat="47.97243" lon="7.10454">
        <ele>1187.8</ele>
        <time>2021-01-16T11:13:26.000Z</time>
      </trkpt>
      <trkpt lat="47.9725" lon="7.10444">
        <ele>1188.1</ele>
        <time>2021-01-16T11:13:39.000Z</time>
      </trkpt>
      <trkpt lat="47.97258" lon="7.10437">
        <ele>1188.1</ele>
        <time>2021-01-16T11:14:29.000Z</time>
      </trkpt>
      <trkpt lat="47.97267" lon="7.10433">
        <ele>1188.7</ele>
        <time>2021-01-16T11:14:46.000Z</time>
      </trkpt>
      <trkpt lat="47.97275" lon="7.10427">
        <ele>1188.9</ele>
        <time>2021-01-16T11:15:02.000Z</time>
      </trkpt>
      <trkpt lat="47.97284" lon="7.10431">
        <ele>1190.8</ele>
        <time>2021-01-16T11:17:42.000Z</time>
      </trkpt>
      <trkpt lat="47.97293" lon="7.10429">
        <ele>1191.7</ele>
        <time>2021-01-16T11:17:57.000Z</time>
      </trkpt>
      <trkpt lat="47.97304" lon="7.1043">
        <ele>1193.1</ele>
        <time>2021-01-16T11:18:52.000Z</time>
      </trkpt>
      <trkpt lat="47.97317" lon="7.10428">
        <ele>1194.6</ele>
        <time>2021-01-16T11:19:33.000Z</time>
      </trkpt>
      <trkpt lat="47.97326" lon="7.10432">
        <ele>1196.4</ele>
        <time>2021-01-16T11:19:53.000Z</time>
      </trkpt>
      <trkpt lat="47.97333" lon="7.1044">
        <ele>1198.5</ele>
        <time>2021-01-16T11:20:47.000Z</time>
      </trkpt>
      <trkpt lat="47.97342" lon="7.10445">
        <ele>1198.5</ele>
        <time>2021-01-16T11:20:58.000Z</time>
      </trkpt>
      <trkpt lat="47.9735" lon="7.10454">
        <ele>1199.2</ele>
        <time>2021-01-16T11:21:37.000Z</time>
      </trkpt>
      <trkpt lat="47.97356" lon="7.10463">
        <ele>1199.9</ele>
        <time>2021-01-16T11:21:48.000Z</time>
      </trkpt>
      <trkpt lat="47.97363" lon="7.10472">
        <ele>1200.6</ele>
        <time>2021-01-16T11:22:01.000Z</time>
      </trkpt>
      <trkpt lat="47.97369" lon="7.10483">
        <ele>1201.6</ele>
        <time>2021-01-16T11:22:17.000Z</time>
      </trkpt>
      <trkpt lat="47.97367" lon="7.10497">
        <ele>1203.9</ele>
        <time>2021-01-16T11:22:35.000Z</time>
      </trkpt>
      <trkpt lat="47.97366" lon="7.10511">
        <ele>1206</ele>
        <time>2021-01-16T11:22:49.000Z</time>
      </trkpt>
      <trkpt lat="47.9737" lon="7.10523">
        <ele>1207.2</ele>
        <time>2021-01-16T11:23:02.000Z</time>
      </trkpt>
      <trkpt lat="47.97371" lon="7.10537">
        <ele>1209.2</ele>
        <time>2021-01-16T11:23:45.000Z</time>
      </trkpt>
      <trkpt lat="47.97373" lon="7.10552">
        <ele>1211.1</ele>
        <time>2021-01-16T11:23:54.000Z</time>
      </trkpt>
      <trkpt lat="47.97386" lon="7.10568">
        <ele>1212.7</ele>
        <time>2021-01-16T11:24:06.000Z</time>
      </trkpt>
      <trkpt lat="47.97385" lon="7.10581">
        <ele>1214.8</ele>
        <time>2021-01-16T11:24:43.000Z</time>
      </trkpt>
      <trkpt lat="47.97388" lon="7.10594">
        <ele>1216</ele>
        <time>2021-01-16T11:24:54.000Z</time>
      </trkpt>
      <trkpt lat="47.97394" lon="7.10606">
        <ele>1216.9</ele>
        <time>2021-01-16T11:25:19.000Z</time>
      </trkpt>
      <trkpt lat="47.97397" lon="7.10619">
        <ele>1217.9</ele>
        <time>2021-01-16T11:25:31.000Z</time>
      </trkpt>
      <trkpt lat="47.97402" lon="7.10631">
        <ele>1218.9</ele>
        <time>2021-01-16T11:25:43.000Z</time>
      </trkpt>
      <trkpt lat="47.97407" lon="7.10643">
        <ele>1219.9</ele>
        <time>2021-01-16T11:26:05.000Z</time>
      </trkpt>
      <trkpt lat="47.97412" lon="7.10655">
        <ele>1220.9</ele>
        <time>2021-01-16T11:26:18.000Z</time>
      </trkpt>
      <trkpt lat="47.97418" lon="7.10665">
        <ele>1221.8</ele>
        <time>2021-01-16T11:26:29.000Z</time>
      </trkpt>
      <trkpt lat="47.97424" lon="7.10676">
        <ele>1221.7</ele>
        <time>2021-01-16T11:26:42.000Z</time>
      </trkpt>
      <trkpt lat="47.9743" lon="7.10687">
        <ele>1221.5</ele>
        <time>2021-01-16T11:26:55.000Z</time>
      </trkpt>
      <trkpt lat="47.97436" lon="7.10697">
        <ele>1221.4</ele>
        <time>2021-01-16T11:27:07.000Z</time>
      </trkpt>
      <trkpt lat="47.97441" lon="7.10708">
        <ele>1221.4</ele>
        <time>2021-01-16T11:27:21.000Z</time>
      </trkpt>
      <trkpt lat="47.97447" lon="7.10718">
        <ele>1221.4</ele>
        <time>2021-01-16T11:27:36.000Z</time>
      </trkpt>
      <trkpt lat="47.97454" lon="7.10728">
        <ele>1221.6</ele>
        <time>2021-01-16T11:27:50.000Z</time>
      </trkpt>
      <trkpt lat="47.97462" lon="7.10737">
        <ele>1221.8</ele>
        <time>2021-01-16T11:28:05.000Z</time>
      </trkpt>
      <trkpt lat="47.97469" lon="7.10745">
        <ele>1222.1</ele>
        <time>2021-01-16T11:28:16.000Z</time>
      </trkpt>
      <trkpt lat="47.97477" lon="7.10752">
        <ele>1222.5</ele>
        <time>2021-01-16T11:28:26.000Z</time>
      </trkpt>
      <trkpt lat="47.97486" lon="7.10757">
        <ele>1222.9</ele>
        <time>2021-01-16T11:28:36.000Z</time>
      </trkpt>
      <trkpt lat="47.97494" lon="7.10765">
        <ele>1223.4</ele>
        <time>2021-01-16T11:28:47.000Z</time>
      </trkpt>
      <trkpt lat="47.97502" lon="7.10773">
        <ele>1223.7</ele>
        <time>2021-01-16T11:28:58.000Z</time>
      </trkpt>
      <trkpt lat="47.9751" lon="7.10781">
        <ele>1223.6</ele>
        <time>2021-01-16T11:29:07.000Z</time>
      </trkpt>
      <trkpt lat="47.97518" lon="7.10789">
        <ele>1223.5</ele>
        <time>2021-01-16T11:29:24.000Z</time>
      </trkpt>
      <trkpt lat="47.97525" lon="7.10797">
        <ele>1223.2</ele>
        <time>2021-01-16T11:29:35.000Z</time>
      </trkpt>
      <trkpt lat="47.97531" lon="7.10809">
        <ele>1223.1</ele>
        <time>2021-01-16T11:29:45.000Z</time>
      </trkpt>
      <trkpt lat="47.97536" lon="7.10821">
        <ele>1222.8</ele>
        <time>2021-01-16T11:29:56.000Z</time>
      </trkpt>
      <trkpt lat="47.97544" lon="7.10829">
        <ele>1222.3</ele>
        <time>2021-01-16T11:31:01.000Z</time>
      </trkpt>
      <trkpt lat="47.97552" lon="7.10836">
        <ele>1221.5</ele>
        <time>2021-01-16T11:31:18.000Z</time>
      </trkpt>
      <trkpt lat="47.97561" lon="7.10845">
        <ele>1220.4</ele>
        <time>2021-01-16T11:31:26.000Z</time>
      </trkpt>
      <trkpt lat="47.97568" lon="7.10853">
        <ele>1219.4</ele>
        <time>2021-01-16T11:31:34.000Z</time>
      </trkpt>
      <trkpt lat="47.97575" lon="7.10863">
        <ele>1218.5</ele>
        <time>2021-01-16T11:31:42.000Z</time>
      </trkpt>
      <trkpt lat="47.97582" lon="7.10873">
        <ele>1217.7</ele>
        <time>2021-01-16T11:31:50.000Z</time>
      </trkpt>
      <trkpt lat="47.97591" lon="7.1088">
        <ele>1216</ele>
        <time>2021-01-16T11:33:33.000Z</time>
      </trkpt>
      <trkpt lat="47.97601" lon="7.10889">
        <ele>1213.9</ele>
        <time>2021-01-16T11:33:38.000Z</time>
      </trkpt>
      <trkpt lat="47.97608" lon="7.10898">
        <ele>1212.5</ele>
        <time>2021-01-16T11:33:44.000Z</time>
      </trkpt>
      <trkpt lat="47.97616" lon="7.10908">
        <ele>1211.1</ele>
        <time>2021-01-16T11:33:52.000Z</time>
      </trkpt>
      <trkpt lat="47.97624" lon="7.10916">
        <ele>1209.7</ele>
        <time>2021-01-16T11:33:59.000Z</time>
      </trkpt>
      <trkpt lat="47.97632" lon="7.10924">
        <ele>1208.9</ele>
        <time>2021-01-16T11:34:06.000Z</time>
      </trkpt>
      <trkpt lat="47.97641" lon="7.10932">
        <ele>1208.1</ele>
        <time>2021-01-16T11:34:13.000Z</time>
      </trkpt>
      <trkpt lat="47.97648" lon="7.10941">
        <ele>1207.8</ele>
        <time>2021-01-16T11:34:22.000Z</time>
      </trkpt>
      <trkpt lat="47.97658" lon="7.10946">
        <ele>1206.9</ele>
        <time>2021-01-16T11:34:29.000Z</time>
      </trkpt>
      <trkpt lat="47.97668" lon="7.10949">
        <ele>1206</ele>
        <time>2021-01-16T11:34:38.000Z</time>
      </trkpt>
      <trkpt lat="47.97678" lon="7.10952">
        <ele>1204.7</ele>
        <time>2021-01-16T11:34:46.000Z</time>
      </trkpt>
      <trkpt lat="47.97686" lon="7.10957">
        <ele>1203.9</ele>
        <time>2021-01-16T11:34:54.000Z</time>
      </trkpt>
      <trkpt lat="47.97694" lon="7.10966">
        <ele>1203.4</ele>
        <time>2021-01-16T11:35:02.000Z</time>
      </trkpt>
      <trkpt lat="47.977" lon="7.10976">
        <ele>1203.2</ele>
        <time>2021-01-16T11:35:11.000Z</time>
      </trkpt>
      <trkpt lat="47.97706" lon="7.10988">
        <ele>1203.1</ele>
        <time>2021-01-16T11:35:20.000Z</time>
      </trkpt>
      <trkpt lat="47.97713" lon="7.10998">
        <ele>1202.5</ele>
        <time>2021-01-16T11:35:28.000Z</time>
      </trkpt>
      <trkpt lat="47.97721" lon="7.11008">
        <ele>1202.4</ele>
        <time>2021-01-16T11:35:40.000Z</time>
      </trkpt>
      <trkpt lat="47.97728" lon="7.11019">
        <ele>1202.5</ele>
        <time>2021-01-16T11:35:46.000Z</time>
      </trkpt>
      <trkpt lat="47.97736" lon="7.11031">
        <ele>1202.8</ele>
        <time>2021-01-16T11:35:51.000Z</time>
      </trkpt>
      <trkpt lat="47.97742" lon="7.11042">
        <ele>1203</ele>
        <time>2021-01-16T11:35:56.000Z</time>
      </trkpt>
      <trkpt lat="47.9775" lon="7.11051">
        <ele>1202.8</ele>
        <time>2021-01-16T11:36:01.000Z</time>
      </trkpt>
      <trkpt lat="47.97758" lon="7.11061">
        <ele>1201.5</ele>
        <time>2021-01-16T11:36:06.000Z</time>
      </trkpt>
      <trkpt lat="47.97766" lon="7.11071">
        <ele>1200.1</ele>
        <time>2021-01-16T11:36:12.000Z</time>
      </trkpt>
      <trkpt lat="47.97774" lon="7.1108">
        <ele>1198.4</ele>
        <time>2021-01-16T11:36:17.000Z</time>
      </trkpt>
      <trkpt lat="47.97782" lon="7.1109">
        <ele>1196.6</ele>
        <time>2021-01-16T11:36:22.000Z</time>
      </trkpt>
      <trkpt lat="47.9779" lon="7.11097">
        <ele>1194.6</ele>
        <time>2021-01-16T11:36:28.000Z</time>
      </trkpt>
      <trkpt lat="47.97796" lon="7.11108">
        <ele>1193.9</ele>
        <time>2021-01-16T11:38:10.000Z</time>
      </trkpt>
      <trkpt lat="47.97801" lon="7.1112">
        <ele>1193.6</ele>
        <time>2021-01-16T11:38:16.000Z</time>
      </trkpt>
      <trkpt lat="47.97805" lon="7.11134">
        <ele>1193.5</ele>
        <time>2021-01-16T11:38:23.000Z</time>
      </trkpt>
      <trkpt lat="47.97812" lon="7.11144">
        <ele>1192.1</ele>
        <time>2021-01-16T11:38:30.000Z</time>
      </trkpt>
      <trkpt lat="47.97821" lon="7.11155">
        <ele>1189.8</ele>
        <time>2021-01-16T11:47:14.000Z</time>
      </trkpt>
      <trkpt lat="47.97825" lon="7.11167">
        <ele>1189.2</ele>
        <time>2021-01-16T11:47:21.000Z</time>
      </trkpt>
      <trkpt lat="47.97829" lon="7.1118">
        <ele>1188.8</ele>
        <time>2021-01-16T11:47:28.000Z</time>
      </trkpt>
      <trkpt lat="47.97834" lon="7.11192">
        <ele>1188</ele>
        <time>2021-01-16T11:47:37.000Z</time>
      </trkpt>
      <trkpt lat="47.97839" lon="7.11205">
        <ele>1187.3</ele>
        <time>2021-01-16T11:47:43.000Z</time>
      </trkpt>
      <trkpt lat="47.97844" lon="7.11217">
        <ele>1186.1</ele>
        <time>2021-01-16T11:47:51.000Z</time>
      </trkpt>
      <trkpt lat="47.97848" lon="7.11229">
        <ele>1185.9</ele>
        <time>2021-01-16T11:47:57.000Z</time>
      </trkpt>
      <trkpt lat="47.9785" lon="7.11242">
        <ele>1186.3</ele>
        <time>2021-01-16T11:48:03.000Z</time>
      </trkpt>
      <trkpt lat="47.97852" lon="7.11256">
        <ele>1186.9</ele>
        <time>2021-01-16T11:48:10.000Z</time>
      </trkpt>
      <trkpt lat="47.97855" lon="7.11269">
        <ele>1187</ele>
        <time>2021-01-16T11:48:18.000Z</time>
      </trkpt>
      <trkpt lat="47.97858" lon="7.11284">
        <ele>1187.3</ele>
        <time>2021-01-16T11:48:27.000Z</time>
      </trkpt>
      <trkpt lat="47.97861" lon="7.11299">
        <ele>1187.3</ele>
        <time>2021-01-16T11:48:34.000Z</time>
      </trkpt>
      <trkpt lat="47.97865" lon="7.11311">
        <ele>1186.7</ele>
        <time>2021-01-16T11:48:41.000Z</time>
      </trkpt>
      <trkpt lat="47.97869" lon="7.11325">
        <ele>1186</ele>
        <time>2021-01-16T11:48:50.000Z</time>
      </trkpt>
      <trkpt lat="47.97872" lon="7.11339">
        <ele>1186.2</ele>
        <time>2021-01-16T11:49:00.000Z</time>
      </trkpt>
      <trkpt lat="47.97876" lon="7.11352">
        <ele>1185.8</ele>
        <time>2021-01-16T11:49:10.000Z</time>
      </trkpt>
      <trkpt lat="47.97879" lon="7.11366">
        <ele>1186.5</ele>
        <time>2021-01-16T11:49:20.000Z</time>
      </trkpt>
      <trkpt lat="47.9788" lon="7.11379">
        <ele>1187.6</ele>
        <time>2021-01-16T11:49:30.000Z</time>
      </trkpt>
      <trkpt lat="47.97883" lon="7.11393">
        <ele>1188.2</ele>
        <time>2021-01-16T11:49:40.000Z</time>
      </trkpt>
      <trkpt lat="47.97886" lon="7.11406">
        <ele>1188.6</ele>
        <time>2021-01-16T11:49:49.000Z</time>
      </trkpt>
      <trkpt lat="47.9789" lon="7.1142">
        <ele>1188.6</ele>
        <time>2021-01-16T11:50:21.000Z</time>
      </trkpt>
      <trkpt lat="47.97894" lon="7.11432">
        <ele>1187.9</ele>
        <time>2021-01-16T11:50:30.000Z</time>
      </trkpt>
      <trkpt lat="47.97896" lon="7.11446">
        <ele>1188</ele>
        <time>2021-01-16T11:50:38.000Z</time>
      </trkpt>
      <trkpt lat="47.97896" lon="7.1146">
        <ele>1189</ele>
        <time>2021-01-16T11:50:47.000Z</time>
      </trkpt>
      <trkpt lat="47.97896" lon="7.11475">
        <ele>1190.5</ele>
        <time>2021-01-16T11:50:58.000Z</time>
      </trkpt>
      <trkpt lat="47.97896" lon="7.1149">
        <ele>1191.5</ele>
        <time>2021-01-16T11:51:07.000Z</time>
      </trkpt>
      <trkpt lat="47.97895" lon="7.11504">
        <ele>1193</ele>
        <time>2021-01-16T11:51:15.000Z</time>
      </trkpt>
      <trkpt lat="47.97894" lon="7.11517">
        <ele>1193.9</ele>
        <time>2021-01-16T11:51:24.000Z</time>
      </trkpt>
      <trkpt lat="47.97891" lon="7.11531">
        <ele>1195.8</ele>
        <time>2021-01-16T11:51:33.000Z</time>
      </trkpt>
      <trkpt lat="47.97893" lon="7.11545">
        <ele>1195.7</ele>
        <time>2021-01-16T11:51:43.000Z</time>
      </trkpt>
      <trkpt lat="47.97894" lon="7.1156">
        <ele>1195.8</ele>
        <time>2021-01-16T11:51:52.000Z</time>
      </trkpt>
      <trkpt lat="47.97893" lon="7.11574">
        <ele>1197.1</ele>
        <time>2021-01-16T11:51:59.000Z</time>
      </trkpt>
      <trkpt lat="47.97892" lon="7.11588">
        <ele>1197.7</ele>
        <time>2021-01-16T11:52:10.000Z</time>
      </trkpt>
      <trkpt lat="47.97889" lon="7.11602">
        <ele>1197.7</ele>
        <time>2021-01-16T11:52:20.000Z</time>
      </trkpt>
      <trkpt lat="47.97887" lon="7.11616">
        <ele>1197.4</ele>
        <time>2021-01-16T11:52:30.000Z</time>
      </trkpt>
      <trkpt lat="47.97885" lon="7.11629">
        <ele>1197.4</ele>
        <time>2021-01-16T11:52:37.000Z</time>
      </trkpt>
      <trkpt lat="47.97884" lon="7.11644">
        <ele>1196.9</ele>
        <time>2021-01-16T11:52:46.000Z</time>
      </trkpt>
      <trkpt lat="47.97884" lon="7.11658">
        <ele>1195.9</ele>
        <time>2021-01-16T11:52:54.000Z</time>
      </trkpt>
      <trkpt lat="47.97881" lon="7.11672">
        <ele>1196</ele>
        <time>2021-01-16T11:53:02.000Z</time>
      </trkpt>
      <trkpt lat="47.97878" lon="7.11685">
        <ele>1196</ele>
        <time>2021-01-16T11:53:10.000Z</time>
      </trkpt>
      <trkpt lat="47.97875" lon="7.117">
        <ele>1195.9</ele>
        <time>2021-01-16T11:53:17.000Z</time>
      </trkpt>
      <trkpt lat="47.97871" lon="7.11712">
        <ele>1196.3</ele>
        <time>2021-01-16T11:53:23.000Z</time>
      </trkpt>
      <trkpt lat="47.97868" lon="7.11726">
        <ele>1196.2</ele>
        <time>2021-01-16T11:53:30.000Z</time>
      </trkpt>
      <trkpt lat="47.97866" lon="7.11739">
        <ele>1195.7</ele>
        <time>2021-01-16T11:53:37.000Z</time>
      </trkpt>
      <trkpt lat="47.97864" lon="7.11753">
        <ele>1195.5</ele>
        <time>2021-01-16T11:53:46.000Z</time>
      </trkpt>
      <trkpt lat="47.97862" lon="7.11767">
        <ele>1195.9</ele>
        <time>2021-01-16T11:53:54.000Z</time>
      </trkpt>
      <trkpt lat="47.9786" lon="7.11781">
        <ele>1196.1</ele>
        <time>2021-01-16T11:54:02.000Z</time>
      </trkpt>
      <trkpt lat="47.97858" lon="7.11795">
        <ele>1196.4</ele>
        <time>2021-01-16T11:54:09.000Z</time>
      </trkpt>
      <trkpt lat="47.97856" lon="7.11809">
        <ele>1196.6</ele>
        <time>2021-01-16T11:54:18.000Z</time>
      </trkpt>
      <trkpt lat="47.97855" lon="7.11823">
        <ele>1196.7</ele>
        <time>2021-01-16T11:54:28.000Z</time>
      </trkpt>
      <trkpt lat="47.97853" lon="7.11837">
        <ele>1197</ele>
        <time>2021-01-16T11:54:34.000Z</time>
      </trkpt>
      <trkpt lat="47.97854" lon="7.11852">
        <ele>1198</ele>
        <time>2021-01-16T11:54:44.000Z</time>
      </trkpt>
      <trkpt lat="47.97855" lon="7.11866">
        <ele>1199</ele>
        <time>2021-01-16T11:54:51.000Z</time>
      </trkpt>
      <trkpt lat="47.97858" lon="7.1188">
        <ele>1199.7</ele>
        <time>2021-01-16T11:54:59.000Z</time>
      </trkpt>
      <trkpt lat="47.97862" lon="7.11892">
        <ele>1200</ele>
        <time>2021-01-16T11:55:06.000Z</time>
      </trkpt>
      <trkpt lat="47.97867" lon="7.11905">
        <ele>1200.3</ele>
        <time>2021-01-16T11:55:15.000Z</time>
      </trkpt>
      <trkpt lat="47.97873" lon="7.11915">
        <ele>1200.1</ele>
        <time>2021-01-16T11:55:22.000Z</time>
      </trkpt>
      <trkpt lat="47.97879" lon="7.11926">
        <ele>1200.1</ele>
        <time>2021-01-16T11:55:29.000Z</time>
      </trkpt>
      <trkpt lat="47.97886" lon="7.11935">
        <ele>1199.4</ele>
        <time>2021-01-16T11:55:36.000Z</time>
      </trkpt>
      <trkpt lat="47.97893" lon="7.11944">
        <ele>1199.1</ele>
        <time>2021-01-16T11:55:43.000Z</time>
      </trkpt>
      <trkpt lat="47.97901" lon="7.11955">
        <ele>1198.9</ele>
        <time>2021-01-16T11:55:52.000Z</time>
      </trkpt>
      <trkpt lat="47.97908" lon="7.11965">
        <ele>1198.8</ele>
        <time>2021-01-16T11:55:59.000Z</time>
      </trkpt>
      <trkpt lat="47.97913" lon="7.11976">
        <ele>1199.2</ele>
        <time>2021-01-16T11:56:08.000Z</time>
      </trkpt>
      <trkpt lat="47.97918" lon="7.11988">
        <ele>1199.4</ele>
        <time>2021-01-16T11:56:19.000Z</time>
      </trkpt>
      <trkpt lat="47.97925" lon="7.11997">
        <ele>1198.8</ele>
        <time>2021-01-16T11:56:30.000Z</time>
      </trkpt>
      <trkpt lat="47.9793" lon="7.12008">
        <ele>1198.7</ele>
        <time>2021-01-16T11:56:41.000Z</time>
      </trkpt>
      <trkpt lat="47.97936" lon="7.1202">
        <ele>1198.3</ele>
        <time>2021-01-16T11:56:52.000Z</time>
      </trkpt>
      <trkpt lat="47.97942" lon="7.12032">
        <ele>1197.9</ele>
        <time>2021-01-16T11:57:02.000Z</time>
      </trkpt>
      <trkpt lat="47.97948" lon="7.12042">
        <ele>1197.5</ele>
        <time>2021-01-16T11:57:11.000Z</time>
      </trkpt>
      <trkpt lat="47.97963" lon="7.12043">
        <ele>1194.7</ele>
        <time>2021-01-16T11:58:11.000Z</time>
      </trkpt>
      <trkpt lat="47.97967" lon="7.12055">
        <ele>1195.1</ele>
        <time>2021-01-16T11:58:20.000Z</time>
      </trkpt>
      <trkpt lat="47.9797" lon="7.12068">
        <ele>1195.6</ele>
        <time>2021-01-16T11:58:27.000Z</time>
      </trkpt>
      <trkpt lat="47.97973" lon="7.12081">
        <ele>1196.3</ele>
        <time>2021-01-16T11:58:34.000Z</time>
      </trkpt>
      <trkpt lat="47.97977" lon="7.12096">
        <ele>1196.8</ele>
        <time>2021-01-16T11:58:41.000Z</time>
      </trkpt>
      <trkpt lat="47.97981" lon="7.12109">
        <ele>1197.3</ele>
        <time>2021-01-16T11:58:48.000Z</time>
      </trkpt>
      <trkpt lat="47.97984" lon="7.12122">
        <ele>1197.9</ele>
        <time>2021-01-16T11:58:56.000Z</time>
      </trkpt>
      <trkpt lat="47.97988" lon="7.12135">
        <ele>1198.6</ele>
        <time>2021-01-16T11:59:05.000Z</time>
      </trkpt>
      <trkpt lat="47.97992" lon="7.12148">
        <ele>1199.1</ele>
        <time>2021-01-16T11:59:16.000Z</time>
      </trkpt>
      <trkpt lat="47.97998" lon="7.12157">
        <ele>1199.3</ele>
        <time>2021-01-16T11:59:28.000Z</time>
      </trkpt>
      <trkpt lat="47.98002" lon="7.1217">
        <ele>1200.3</ele>
        <time>2021-01-16T11:59:36.000Z</time>
      </trkpt>
      <trkpt lat="47.98006" lon="7.12183">
        <ele>1201.4</ele>
        <time>2021-01-16T11:59:45.000Z</time>
      </trkpt>
      <trkpt lat="47.98009" lon="7.12196">
        <ele>1202.8</ele>
        <time>2021-01-16T11:59:55.000Z</time>
      </trkpt>
      <trkpt lat="47.98008" lon="7.12209">
        <ele>1204.8</ele>
        <time>2021-01-16T12:00:10.000Z</time>
      </trkpt>
      <trkpt lat="47.98007" lon="7.12223">
        <ele>1206.8</ele>
        <time>2021-01-16T12:00:29.000Z</time>
      </trkpt>
      <trkpt lat="47.98003" lon="7.12236">
        <ele>1208.9</ele>
        <time>2021-01-16T12:00:45.000Z</time>
      </trkpt>
      <trkpt lat="47.98001" lon="7.12249">
        <ele>1210.8</ele>
        <time>2021-01-16T12:01:01.000Z</time>
      </trkpt>
      <trkpt lat="47.97997" lon="7.12262">
        <ele>1212.4</ele>
        <time>2021-01-16T12:01:17.000Z</time>
      </trkpt>
      <trkpt lat="47.97996" lon="7.12275">
        <ele>1213.8</ele>
        <time>2021-01-16T12:01:52.000Z</time>
      </trkpt>
      <trkpt lat="47.97993" lon="7.12289">
        <ele>1215.3</ele>
        <time>2021-01-16T12:02:07.000Z</time>
      </trkpt>
      <trkpt lat="47.97992" lon="7.12302">
        <ele>1216.7</ele>
        <time>2021-01-16T12:02:18.000Z</time>
      </trkpt>
      <trkpt lat="47.97989" lon="7.12316">
        <ele>1218.1</ele>
        <time>2021-01-16T12:02:32.000Z</time>
      </trkpt>
      <trkpt lat="47.97985" lon="7.12328">
        <ele>1219.3</ele>
        <time>2021-01-16T12:02:45.000Z</time>
      </trkpt>
      <trkpt lat="47.97978" lon="7.12339">
        <ele>1220.4</ele>
        <time>2021-01-16T12:02:59.000Z</time>
      </trkpt>
      <trkpt lat="47.97971" lon="7.12348">
        <ele>1221.4</ele>
        <time>2021-01-16T12:03:11.000Z</time>
      </trkpt>
      <trkpt lat="47.97964" lon="7.12357">
        <ele>1222.1</ele>
        <time>2021-01-16T12:03:23.000Z</time>
      </trkpt>
      <trkpt lat="47.97957" lon="7.12366">
        <ele>1222.8</ele>
        <time>2021-01-16T12:03:35.000Z</time>
      </trkpt>
      <trkpt lat="47.9795" lon="7.12373">
        <ele>1222.9</ele>
        <time>2021-01-16T12:03:45.000Z</time>
      </trkpt>
      <trkpt lat="47.97953" lon="7.12387">
        <ele>1224.4</ele>
        <time>2021-01-16T12:05:04.000Z</time>
      </trkpt>
      <trkpt lat="47.97959" lon="7.12398">
        <ele>1226.1</ele>
        <time>2021-01-16T12:05:16.000Z</time>
      </trkpt>
      <trkpt lat="47.97965" lon="7.12409">
        <ele>1228.1</ele>
        <time>2021-01-16T12:05:33.000Z</time>
      </trkpt>
      <trkpt lat="47.9797" lon="7.12421">
        <ele>1230.1</ele>
        <time>2021-01-16T12:05:47.000Z</time>
      </trkpt>
      <trkpt lat="47.97975" lon="7.12432">
        <ele>1232.1</ele>
        <time>2021-01-16T12:06:06.000Z</time>
      </trkpt>
      <trkpt lat="47.9798" lon="7.12443">
        <ele>1234.3</ele>
        <time>2021-01-16T12:07:00.000Z</time>
      </trkpt>
      <trkpt lat="47.97988" lon="7.1245">
        <ele>1236.8</ele>
        <time>2021-01-16T12:07:28.000Z</time>
      </trkpt>
      <trkpt lat="47.97992" lon="7.12462">
        <ele>1239.4</ele>
        <time>2021-01-16T12:07:44.000Z</time>
      </trkpt>
      <trkpt lat="47.97999" lon="7.12472">
        <ele>1242.4</ele>
        <time>2021-01-16T12:08:03.000Z</time>
      </trkpt>
      <trkpt lat="47.98005" lon="7.12483">
        <ele>1245</ele>
        <time>2021-01-16T12:08:23.000Z</time>
      </trkpt>
      <trkpt lat="47.98011" lon="7.12494">
        <ele>1247.4</ele>
        <time>2021-01-16T12:08:47.000Z</time>
      </trkpt>
      <trkpt lat="47.98016" lon="7.12505">
        <ele>1249.5</ele>
        <time>2021-01-16T12:09:08.000Z</time>
      </trkpt>
      <trkpt lat="47.98021" lon="7.12517">
        <ele>1251</ele>
        <time>2021-01-16T12:09:30.000Z</time>
      </trkpt>
      <trkpt lat="47.98026" lon="7.12528">
        <ele>1252.4</ele>
        <time>2021-01-16T12:09:48.000Z</time>
      </trkpt>
      <trkpt lat="47.98031" lon="7.12539">
        <ele>1253.9</ele>
        <time>2021-01-16T12:10:06.000Z</time>
      </trkpt>
      <trkpt lat="47.98037" lon="7.12551">
        <ele>1255.5</ele>
        <time>2021-01-16T12:10:19.000Z</time>
      </trkpt>
      <trkpt lat="47.98043" lon="7.12561">
        <ele>1257</ele>
        <time>2021-01-16T12:10:35.000Z</time>
      </trkpt>
      <trkpt lat="47.98048" lon="7.12572">
        <ele>1258.5</ele>
        <time>2021-01-16T12:10:49.000Z</time>
      </trkpt>
      <trkpt lat="47.98054" lon="7.12583">
        <ele>1260.1</ele>
        <time>2021-01-16T12:11:02.000Z</time>
      </trkpt>
      <trkpt lat="47.98062" lon="7.12592">
        <ele>1260.7</ele>
        <time>2021-01-16T12:11:21.000Z</time>
      </trkpt>
      <trkpt lat="47.98069" lon="7.12582">
        <ele>1262</ele>
        <time>2021-01-16T12:12:41.000Z</time>
      </trkpt>
      <trkpt lat="47.98072" lon="7.12569">
        <ele>1261.5</ele>
        <time>2021-01-16T12:12:51.000Z</time>
      </trkpt>
      <trkpt lat="47.98065" lon="7.1256">
        <ele>1259.9</ele>
        <time>2021-01-16T12:18:39.000Z</time>
      </trkpt>
      <trkpt lat="47.98059" lon="7.12548">
        <ele>1258.2</ele>
        <time>2021-01-16T12:18:46.000Z</time>
      </trkpt>
      <trkpt lat="47.98053" lon="7.12529">
        <ele>1256.1</ele>
        <time>2021-01-16T12:18:51.000Z</time>
      </trkpt>
      <trkpt lat="47.9804" lon="7.12498">
        <ele>1251.9</ele>
        <time>2021-01-16T12:18:56.000Z</time>
      </trkpt>
      <trkpt lat="47.98027" lon="7.12464">
        <ele>1244.8</ele>
        <time>2021-01-16T12:19:01.000Z</time>
      </trkpt>
      <trkpt lat="47.98009" lon="7.12436">
        <ele>1238.1</ele>
        <time>2021-01-16T12:19:06.000Z</time>
      </trkpt>
      <trkpt lat="47.97991" lon="7.12409">
        <ele>1231.6</ele>
        <time>2021-01-16T12:19:11.000Z</time>
      </trkpt>
      <trkpt lat="47.97968" lon="7.12391">
        <ele>1226.4</ele>
        <time>2021-01-16T12:19:16.000Z</time>
      </trkpt>
      <trkpt lat="47.97953" lon="7.12381">
        <ele>1223.8</ele>
        <time>2021-01-16T12:19:21.000Z</time>
      </trkpt>
      <trkpt lat="47.97955" lon="7.12394">
        <ele>1225.3</ele>
        <time>2021-01-16T12:23:22.000Z</time>
      </trkpt>
      <trkpt lat="47.97962" lon="7.12404">
        <ele>1227.1</ele>
        <time>2021-01-16T12:23:34.000Z</time>
      </trkpt>
      <trkpt lat="47.97967" lon="7.12414">
        <ele>1229</ele>
        <time>2021-01-16T12:23:47.000Z</time>
      </trkpt>
      <trkpt lat="47.97973" lon="7.12426">
        <ele>1231.1</ele>
        <time>2021-01-16T12:24:04.000Z</time>
      </trkpt>
      <trkpt lat="47.9798" lon="7.12435">
        <ele>1233.3</ele>
        <time>2021-01-16T12:24:17.000Z</time>
      </trkpt>
      <trkpt lat="47.97985" lon="7.12447">
        <ele>1235.8</ele>
        <time>2021-01-16T12:24:29.000Z</time>
      </trkpt>
      <trkpt lat="47.97991" lon="7.12458">
        <ele>1238.4</ele>
        <time>2021-01-16T12:24:45.000Z</time>
      </trkpt>
      <trkpt lat="47.97997" lon="7.12468">
        <ele>1241.2</ele>
        <time>2021-01-16T12:25:03.000Z</time>
      </trkpt>
      <trkpt lat="47.98002" lon="7.12479">
        <ele>1244</ele>
        <time>2021-01-16T12:25:16.000Z</time>
      </trkpt>
      <trkpt lat="47.98009" lon="7.12489">
        <ele>1246.4</ele>
        <time>2021-01-16T12:25:39.000Z</time>
      </trkpt>
      <trkpt lat="47.98013" lon="7.12501">
        <ele>1248.8</ele>
        <time>2021-01-16T12:25:56.000Z</time>
      </trkpt>
      <trkpt lat="47.98019" lon="7.12512">
        <ele>1250.4</ele>
        <time>2021-01-16T12:26:13.000Z</time>
      </trkpt>
      <trkpt lat="47.98025" lon="7.12522">
        <ele>1251.9</ele>
        <time>2021-01-16T12:26:30.000Z</time>
      </trkpt>
      <trkpt lat="47.9803" lon="7.12534">
        <ele>1253.4</ele>
        <time>2021-01-16T12:26:44.000Z</time>
      </trkpt>
      <trkpt lat="47.98035" lon="7.12546">
        <ele>1254.9</ele>
        <time>2021-01-16T12:27:01.000Z</time>
      </trkpt>
      <trkpt lat="47.98041" lon="7.12557">
        <ele>1256.5</ele>
        <time>2021-01-16T12:27:18.000Z</time>
      </trkpt>
      <trkpt lat="47.9805" lon="7.12562">
        <ele>1258</ele>
        <time>2021-01-16T12:27:29.000Z</time>
      </trkpt>
      <trkpt lat="47.98059" lon="7.12564">
        <ele>1259.3</ele>
        <time>2021-01-16T12:27:40.000Z</time>
      </trkpt>
      <trkpt lat="47.98068" lon="7.12565">
        <ele>1260.7</ele>
        <time>2021-01-16T12:27:53.000Z</time>
      </trkpt>
      <trkpt lat="47.98077" lon="7.12565">
        <ele>1261.8</ele>
        <time>2021-01-16T12:40:01.000Z</time>
      </trkpt>
      <trkpt lat="47.98086" lon="7.12552">
        <ele>1261.4</ele>
        <time>2021-01-16T13:00:36.000Z</time>
      </trkpt>
      <trkpt lat="47.98087" lon="7.12539">
        <ele>1260.3</ele>
        <time>2021-01-16T13:00:41.000Z</time>
      </trkpt>
      <trkpt lat="47.98089" lon="7.12523">
        <ele>1259</ele>
        <time>2021-01-16T13:00:47.000Z</time>
      </trkpt>
      <trkpt lat="47.98098" lon="7.12518">
        <ele>1257.8</ele>
        <time>2021-01-16T13:00:58.000Z</time>
      </trkpt>
      <trkpt lat="47.98107" lon="7.12521">
        <ele>1256.9</ele>
        <time>2021-01-16T13:01:15.000Z</time>
      </trkpt>
      <trkpt lat="47.98117" lon="7.12524">
        <ele>1256</ele>
        <time>2021-01-16T13:01:25.000Z</time>
      </trkpt>
      <trkpt lat="47.98126" lon="7.12521">
        <ele>1254.9</ele>
        <time>2021-01-16T13:04:16.000Z</time>
      </trkpt>
      <trkpt lat="47.9813" lon="7.12507">
        <ele>1254.2</ele>
        <time>2021-01-16T13:04:22.000Z</time>
      </trkpt>
      <trkpt lat="47.98137" lon="7.12481">
        <ele>1250.8</ele>
        <time>2021-01-16T13:04:27.000Z</time>
      </trkpt>
      <trkpt lat="47.98148" lon="7.12456">
        <ele>1246.8</ele>
        <time>2021-01-16T13:04:32.000Z</time>
      </trkpt>
      <trkpt lat="47.98155" lon="7.12428">
        <ele>1242.8</ele>
        <time>2021-01-16T13:04:37.000Z</time>
      </trkpt>
      <trkpt lat="47.98158" lon="7.12397">
        <ele>1237.4</ele>
        <time>2021-01-16T13:04:42.000Z</time>
      </trkpt>
      <trkpt lat="47.98172" lon="7.12372">
        <ele>1231.8</ele>
        <time>2021-01-16T13:04:47.000Z</time>
      </trkpt>
      <trkpt lat="47.9819" lon="7.12355">
        <ele>1227.1</ele>
        <time>2021-01-16T13:04:52.000Z</time>
      </trkpt>
      <trkpt lat="47.98207" lon="7.12342">
        <ele>1223.8</ele>
        <time>2021-01-16T13:04:57.000Z</time>
      </trkpt>
      <trkpt lat="47.98223" lon="7.12329">
        <ele>1220.9</ele>
        <time>2021-01-16T13:05:02.000Z</time>
      </trkpt>
      <trkpt lat="47.98238" lon="7.12317">
        <ele>1217.5</ele>
        <time>2021-01-16T13:05:07.000Z</time>
      </trkpt>
      <trkpt lat="47.9825" lon="7.12308">
        <ele>1215</ele>
        <time>2021-01-16T13:05:12.000Z</time>
      </trkpt>
      <trkpt lat="47.98263" lon="7.12299">
        <ele>1211.9</ele>
        <time>2021-01-16T13:05:17.000Z</time>
      </trkpt>
      <trkpt lat="47.98276" lon="7.1229">
        <ele>1208.8</ele>
        <time>2021-01-16T13:05:22.000Z</time>
      </trkpt>
      <trkpt lat="47.98289" lon="7.12275">
        <ele>1205</ele>
        <time>2021-01-16T13:05:27.000Z</time>
      </trkpt>
      <trkpt lat="47.98298" lon="7.12243">
        <ele>1198.6</ele>
        <time>2021-01-16T13:05:32.000Z</time>
      </trkpt>
      <trkpt lat="47.98312" lon="7.12217">
        <ele>1192.6</ele>
        <time>2021-01-16T13:05:37.000Z</time>
      </trkpt>
      <trkpt lat="47.98334" lon="7.12193">
        <ele>1187.3</ele>
        <time>2021-01-16T13:05:42.000Z</time>
      </trkpt>
      <trkpt lat="47.98354" lon="7.12175">
        <ele>1182.3</ele>
        <time>2021-01-16T13:05:47.000Z</time>
      </trkpt>
      <trkpt lat="47.98373" lon="7.12165">
        <ele>1178.9</ele>
        <time>2021-01-16T13:05:52.000Z</time>
      </trkpt>
      <trkpt lat="47.98385" lon="7.12153">
        <ele>1175.9</ele>
        <time>2021-01-16T13:05:57.000Z</time>
      </trkpt>
      <trkpt lat="47.98394" lon="7.12146">
        <ele>1174</ele>
        <time>2021-01-16T13:06:09.000Z</time>
      </trkpt>
      <trkpt lat="47.98408" lon="7.12138">
        <ele>1171.8</ele>
        <time>2021-01-16T13:06:14.000Z</time>
      </trkpt>
      <trkpt lat="47.9843" lon="7.12124">
        <ele>1168.4</ele>
        <time>2021-01-16T13:06:19.000Z</time>
      </trkpt>
      <trkpt lat="47.98449" lon="7.12105">
        <ele>1165.4</ele>
        <time>2021-01-16T13:06:24.000Z</time>
      </trkpt>
      <trkpt lat="47.98462" lon="7.12092">
        <ele>1163.6</ele>
        <time>2021-01-16T13:06:29.000Z</time>
      </trkpt>
      <trkpt lat="47.9847" lon="7.12079">
        <ele>1162.3</ele>
        <time>2021-01-16T13:06:34.000Z</time>
      </trkpt>
      <trkpt lat="47.98483" lon="7.12062">
        <ele>1160.6</ele>
        <time>2021-01-16T13:06:39.000Z</time>
      </trkpt>
      <trkpt lat="47.98495" lon="7.12057">
        <ele>1160.3</ele>
        <time>2021-01-16T13:06:44.000Z</time>
      </trkpt>
      <trkpt lat="47.98503" lon="7.1205">
        <ele>1159.9</ele>
        <time>2021-01-16T13:07:09.000Z</time>
      </trkpt>
      <trkpt lat="47.98501" lon="7.12036">
        <ele>1159.2</ele>
        <time>2021-01-16T13:07:25.000Z</time>
      </trkpt>
      <trkpt lat="47.98503" lon="7.12023">
        <ele>1158.4</ele>
        <time>2021-01-16T13:07:48.000Z</time>
      </trkpt>
      <trkpt lat="47.98506" lon="7.12009">
        <ele>1157.8</ele>
        <time>2021-01-16T13:08:12.000Z</time>
      </trkpt>
      <trkpt lat="47.98508" lon="7.11995">
        <ele>1157.1</ele>
        <time>2021-01-16T13:08:31.000Z</time>
      </trkpt>
      <trkpt lat="47.98508" lon="7.11981">
        <ele>1156.1</ele>
        <time>2021-01-16T13:08:42.000Z</time>
      </trkpt>
      <trkpt lat="47.98507" lon="7.11966">
        <ele>1154.8</ele>
        <time>2021-01-16T13:08:50.000Z</time>
      </trkpt>
      <trkpt lat="47.98507" lon="7.11953">
        <ele>1153.9</ele>
        <time>2021-01-16T13:08:59.000Z</time>
      </trkpt>
      <trkpt lat="47.98512" lon="7.1194">
        <ele>1153.6</ele>
        <time>2021-01-16T13:09:16.000Z</time>
      </trkpt>
      <trkpt lat="47.98515" lon="7.11928">
        <ele>1153.3</ele>
        <time>2021-01-16T13:09:45.000Z</time>
      </trkpt>
      <trkpt lat="47.98521" lon="7.11917">
        <ele>1153.5</ele>
        <time>2021-01-16T13:10:19.000Z</time>
      </trkpt>
      <trkpt lat="47.98529" lon="7.1191">
        <ele>1153.8</ele>
        <time>2021-01-16T13:10:41.000Z</time>
      </trkpt>
      <trkpt lat="47.98539" lon="7.119">
        <ele>1154.1</ele>
        <time>2021-01-16T13:11:23.000Z</time>
      </trkpt>
      <trkpt lat="47.98547" lon="7.11892">
        <ele>1154.4</ele>
        <time>2021-01-16T13:11:42.000Z</time>
      </trkpt>
      <trkpt lat="47.98554" lon="7.11883">
        <ele>1154.5</ele>
        <time>2021-01-16T13:12:01.000Z</time>
      </trkpt>
      <trkpt lat="47.98563" lon="7.11877">
        <ele>1155.3</ele>
        <time>2021-01-16T13:12:15.000Z</time>
      </trkpt>
      <trkpt lat="47.98571" lon="7.11871">
        <ele>1156.2</ele>
        <time>2021-01-16T13:12:33.000Z</time>
      </trkpt>
      <trkpt lat="47.9858" lon="7.11867">
        <ele>1157.4</ele>
        <time>2021-01-16T13:13:00.000Z</time>
      </trkpt>
      <trkpt lat="47.98589" lon="7.11863">
        <ele>1157.6</ele>
        <time>2021-01-16T13:13:31.000Z</time>
      </trkpt>
      <trkpt lat="47.98597" lon="7.11857">
        <ele>1157.1</ele>
        <time>2021-01-16T13:13:56.000Z</time>
      </trkpt>
      <trkpt lat="47.98606" lon="7.11852">
        <ele>1156.6</ele>
        <time>2021-01-16T13:14:15.000Z</time>
      </trkpt>
      <trkpt lat="47.98621" lon="7.11851">
        <ele>1156.9</ele>
        <time>2021-01-16T13:14:57.000Z</time>
      </trkpt>
      <trkpt lat="47.9863" lon="7.11852">
        <ele>1157.1</ele>
        <time>2021-01-16T13:15:19.000Z</time>
      </trkpt>
      <trkpt lat="47.98639" lon="7.11856">
        <ele>1157.6</ele>
        <time>2021-01-16T13:15:36.000Z</time>
      </trkpt>
      <trkpt lat="47.98647" lon="7.1186">
        <ele>1158</ele>
        <time>2021-01-16T13:15:48.000Z</time>
      </trkpt>
      <trkpt lat="47.98656" lon="7.11863">
        <ele>1158.3</ele>
        <time>2021-01-16T13:15:54.000Z</time>
      </trkpt>
      <trkpt lat="47.98667" lon="7.11865">
        <ele>1158.5</ele>
        <time>2021-01-16T13:15:59.000Z</time>
      </trkpt>
      <trkpt lat="47.98676" lon="7.11869">
        <ele>1157.9</ele>
        <time>2021-01-16T13:16:05.000Z</time>
      </trkpt>
      <trkpt lat="47.98686" lon="7.11868">
        <ele>1157.2</ele>
        <time>2021-01-16T13:16:16.000Z</time>
      </trkpt>
      <trkpt lat="47.98695" lon="7.1187">
        <ele>1156.4</ele>
        <time>2021-01-16T13:18:01.000Z</time>
      </trkpt>
      <trkpt lat="47.98705" lon="7.11867">
        <ele>1155.6</ele>
        <time>2021-01-16T13:19:38.000Z</time>
      </trkpt>
      <trkpt lat="47.98714" lon="7.11867">
        <ele>1154.9</ele>
        <time>2021-01-16T13:19:47.000Z</time>
      </trkpt>
      <trkpt lat="47.98724" lon="7.11868">
        <ele>1154.1</ele>
        <time>2021-01-16T13:19:57.000Z</time>
      </trkpt>
      <trkpt lat="47.98733" lon="7.1187">
        <ele>1153.4</ele>
        <time>2021-01-16T13:20:07.000Z</time>
      </trkpt>
      <trkpt lat="47.98742" lon="7.1187">
        <ele>1152.6</ele>
        <time>2021-01-16T13:20:18.000Z</time>
      </trkpt>
      <trkpt lat="47.98752" lon="7.11872">
        <ele>1152</ele>
        <time>2021-01-16T13:20:28.000Z</time>
      </trkpt>
      <trkpt lat="47.98762" lon="7.11872">
        <ele>1151.9</ele>
        <time>2021-01-16T13:20:38.000Z</time>
      </trkpt>
      <trkpt lat="47.98771" lon="7.11872">
        <ele>1151.9</ele>
        <time>2021-01-16T13:20:49.000Z</time>
      </trkpt>
      <trkpt lat="47.9878" lon="7.11872">
        <ele>1151.9</ele>
        <time>2021-01-16T13:21:00.000Z</time>
      </trkpt>
      <trkpt lat="47.9879" lon="7.11873">
        <ele>1151.8</ele>
        <time>2021-01-16T13:21:10.000Z</time>
      </trkpt>
      <trkpt lat="47.98799" lon="7.11872">
        <ele>1151.8</ele>
        <time>2021-01-16T13:21:21.000Z</time>
      </trkpt>
      <trkpt lat="47.98808" lon="7.11877">
        <ele>1151.6</ele>
        <time>2021-01-16T13:21:37.000Z</time>
      </trkpt>
      <trkpt lat="47.98817" lon="7.11877">
        <ele>1151.5</ele>
        <time>2021-01-16T13:21:51.000Z</time>
      </trkpt>
      <trkpt lat="47.98825" lon="7.11871">
        <ele>1151.7</ele>
        <time>2021-01-16T13:22:03.000Z</time>
      </trkpt>
      <trkpt lat="47.98832" lon="7.11864">
        <ele>1151.9</ele>
        <time>2021-01-16T13:22:18.000Z</time>
      </trkpt>
      <trkpt lat="47.9884" lon="7.11854">
        <ele>1152.6</ele>
        <time>2021-01-16T13:22:31.000Z</time>
      </trkpt>
      <trkpt lat="47.9885" lon="7.11844">
        <ele>1153.6</ele>
        <time>2021-01-16T13:22:53.000Z</time>
      </trkpt>
      <trkpt lat="47.98858" lon="7.11836">
        <ele>1154.4</ele>
        <time>2021-01-16T13:23:02.000Z</time>
      </trkpt>
      <trkpt lat="47.98866" lon="7.11829">
        <ele>1154.6</ele>
        <time>2021-01-16T13:23:14.000Z</time>
      </trkpt>
      <trkpt lat="47.98872" lon="7.11818">
        <ele>1154.3</ele>
        <time>2021-01-16T13:23:33.000Z</time>
      </trkpt>
      <trkpt lat="47.98878" lon="7.11807">
        <ele>1154</ele>
        <time>2021-01-16T13:23:46.000Z</time>
      </trkpt>
      <trkpt lat="47.9888" lon="7.11792">
        <ele>1153.2</ele>
        <time>2021-01-16T13:26:17.000Z</time>
      </trkpt>
      <trkpt lat="47.98885" lon="7.11777">
        <ele>1152.8</ele>
        <time>2021-01-16T13:27:24.000Z</time>
      </trkpt>
      <trkpt lat="47.98891" lon="7.11769">
        <ele>1153</ele>
        <time>2021-01-16T13:29:37.000Z</time>
      </trkpt>
      <trkpt lat="47.98896" lon="7.11757">
        <ele>1152.9</ele>
        <time>2021-01-16T13:29:51.000Z</time>
      </trkpt>
      <trkpt lat="47.98903" lon="7.11745">
        <ele>1153</ele>
        <time>2021-01-16T13:30:01.000Z</time>
      </trkpt>
      <trkpt lat="47.98907" lon="7.11733">
        <ele>1152.6</ele>
        <time>2021-01-16T13:30:14.000Z</time>
      </trkpt>
      <trkpt lat="47.98912" lon="7.11721">
        <ele>1152.6</ele>
        <time>2021-01-16T13:30:31.000Z</time>
      </trkpt>
      <trkpt lat="47.98915" lon="7.11708">
        <ele>1152.3</ele>
        <time>2021-01-16T13:30:43.000Z</time>
      </trkpt>
      <trkpt lat="47.9892" lon="7.11696">
        <ele>1151.6</ele>
        <time>2021-01-16T13:31:01.000Z</time>
      </trkpt>
      <trkpt lat="47.98926" lon="7.11684">
        <ele>1150.8</ele>
        <time>2021-01-16T13:31:20.000Z</time>
      </trkpt>
      <trkpt lat="47.98931" lon="7.11671">
        <ele>1150.3</ele>
        <time>2021-01-16T13:31:40.000Z</time>
      </trkpt>
      <trkpt lat="47.98935" lon="7.11659">
        <ele>1149.6</ele>
        <time>2021-01-16T13:31:48.000Z</time>
      </trkpt>
      <trkpt lat="47.98939" lon="7.11647">
        <ele>1149</ele>
        <time>2021-01-16T13:32:00.000Z</time>
      </trkpt>
      <trkpt lat="47.98944" lon="7.11635">
        <ele>1148.6</ele>
        <time>2021-01-16T13:32:16.000Z</time>
      </trkpt>
      <trkpt lat="47.98948" lon="7.11614">
        <ele>1148.1</ele>
        <time>2021-01-16T13:35:13.000Z</time>
      </trkpt>
      <trkpt lat="47.98945" lon="7.11599">
        <ele>1147</ele>
        <time>2021-01-16T13:35:22.000Z</time>
      </trkpt>
      <trkpt lat="47.98946" lon="7.11584">
        <ele>1146.3</ele>
        <time>2021-01-16T13:35:30.000Z</time>
      </trkpt>
      <trkpt lat="47.98947" lon="7.11567">
        <ele>1144.4</ele>
        <time>2021-01-16T13:35:35.000Z</time>
      </trkpt>
      <trkpt lat="47.98947" lon="7.11553">
        <ele>1142.8</ele>
        <time>2021-01-16T13:35:43.000Z</time>
      </trkpt>
      <trkpt lat="47.98948" lon="7.11539">
        <ele>1141.3</ele>
        <time>2021-01-16T13:35:48.000Z</time>
      </trkpt>
      <trkpt lat="47.98948" lon="7.11522">
        <ele>1139.2</ele>
        <time>2021-01-16T13:35:54.000Z</time>
      </trkpt>
      <trkpt lat="47.98949" lon="7.11506">
        <ele>1137.4</ele>
        <time>2021-01-16T13:35:59.000Z</time>
      </trkpt>
      <trkpt lat="47.9895" lon="7.11491">
        <ele>1135.5</ele>
        <time>2021-01-16T13:36:05.000Z</time>
      </trkpt>
      <trkpt lat="47.98949" lon="7.11473">
        <ele>1132.7</ele>
        <time>2021-01-16T13:36:10.000Z</time>
      </trkpt>
      <trkpt lat="47.98948" lon="7.11456">
        <ele>1129.8</ele>
        <time>2021-01-16T13:36:15.000Z</time>
      </trkpt>
      <trkpt lat="47.98949" lon="7.11436">
        <ele>1127.2</ele>
        <time>2021-01-16T13:36:20.000Z</time>
      </trkpt>
      <trkpt lat="47.9895" lon="7.11418">
        <ele>1124.8</ele>
        <time>2021-01-16T13:36:25.000Z</time>
      </trkpt>
      <trkpt lat="47.9895" lon="7.11401">
        <ele>1123.4</ele>
        <time>2021-01-16T13:36:30.000Z</time>
      </trkpt>
      <trkpt lat="47.98947" lon="7.11384">
        <ele>1120.9</ele>
        <time>2021-01-16T13:36:35.000Z</time>
      </trkpt>
      <trkpt lat="47.98942" lon="7.11359">
        <ele>1116.6</ele>
        <time>2021-01-16T13:36:40.000Z</time>
      </trkpt>
      <trkpt lat="47.98938" lon="7.11329">
        <ele>1112.4</ele>
        <time>2021-01-16T13:36:45.000Z</time>
      </trkpt>
      <trkpt lat="47.98936" lon="7.113">
        <ele>1108.2</ele>
        <time>2021-01-16T13:36:50.000Z</time>
      </trkpt>
      <trkpt lat="47.98933" lon="7.11274">
        <ele>1104.5</ele>
        <time>2021-01-16T13:36:55.000Z</time>
      </trkpt>
      <trkpt lat="47.9893" lon="7.11248">
        <ele>1100.7</ele>
        <time>2021-01-16T13:37:00.000Z</time>
      </trkpt>
      <trkpt lat="47.98927" lon="7.11231">
        <ele>1097.8</ele>
        <time>2021-01-16T13:37:05.000Z</time>
      </trkpt>
      <trkpt lat="47.98927" lon="7.11217">
        <ele>1096</ele>
        <time>2021-01-16T13:37:13.000Z</time>
      </trkpt>
      <trkpt lat="47.98926" lon="7.11201">
        <ele>1093.9</ele>
        <time>2021-01-16T13:37:19.000Z</time>
      </trkpt>
      <trkpt lat="47.98926" lon="7.11186">
        <ele>1092.3</ele>
        <time>2021-01-16T13:37:25.000Z</time>
      </trkpt>
      <trkpt lat="47.98927" lon="7.11172">
        <ele>1091.1</ele>
        <time>2021-01-16T13:37:31.000Z</time>
      </trkpt>
      <trkpt lat="47.98928" lon="7.11158">
        <ele>1089.6</ele>
        <time>2021-01-16T13:37:37.000Z</time>
      </trkpt>
      <trkpt lat="47.98928" lon="7.11144">
        <ele>1088.1</ele>
        <time>2021-01-16T13:37:42.000Z</time>
      </trkpt>
      <trkpt lat="47.98927" lon="7.11129">
        <ele>1085.8</ele>
        <time>2021-01-16T13:37:49.000Z</time>
      </trkpt>
      <trkpt lat="47.98926" lon="7.11115">
        <ele>1083.8</ele>
        <time>2021-01-16T13:37:54.000Z</time>
      </trkpt>
      <trkpt lat="47.98926" lon="7.111">
        <ele>1081.9</ele>
        <time>2021-01-16T13:37:59.000Z</time>
      </trkpt>
      <trkpt lat="47.9893" lon="7.11086">
        <ele>1081.5</ele>
        <time>2021-01-16T13:38:06.000Z</time>
      </trkpt>
      <trkpt lat="47.98932" lon="7.11071">
        <ele>1080.4</ele>
        <time>2021-01-16T13:38:14.000Z</time>
      </trkpt>
      <trkpt lat="47.98936" lon="7.11058">
        <ele>1080.2</ele>
        <time>2021-01-16T13:38:23.000Z</time>
      </trkpt>
      <trkpt lat="47.98943" lon="7.11048">
        <ele>1081</ele>
        <time>2021-01-16T13:38:36.000Z</time>
      </trkpt>
      <trkpt lat="47.98947" lon="7.11034">
        <ele>1080.6</ele>
        <time>2021-01-16T13:38:52.000Z</time>
      </trkpt>
      <trkpt lat="47.98948" lon="7.11018">
        <ele>1078.9</ele>
        <time>2021-01-16T13:38:57.000Z</time>
      </trkpt>
      <trkpt lat="47.9895" lon="7.11001">
        <ele>1077.4</ele>
        <time>2021-01-16T13:39:02.000Z</time>
      </trkpt>
      <trkpt lat="47.98951" lon="7.10987">
        <ele>1075.7</ele>
        <time>2021-01-16T13:39:10.000Z</time>
      </trkpt>
      <trkpt lat="47.98953" lon="7.10973">
        <ele>1074.3</ele>
        <time>2021-01-16T13:39:20.000Z</time>
      </trkpt>
      <trkpt lat="47.98955" lon="7.1096">
        <ele>1073</ele>
        <time>2021-01-16T13:39:26.000Z</time>
      </trkpt>
      <trkpt lat="47.98956" lon="7.10946">
        <ele>1071.2</ele>
        <time>2021-01-16T13:39:32.000Z</time>
      </trkpt>
      <trkpt lat="47.98956" lon="7.10931">
        <ele>1069</ele>
        <time>2021-01-16T13:39:37.000Z</time>
      </trkpt>
      <trkpt lat="47.98956" lon="7.1091">
        <ele>1065.8</ele>
        <time>2021-01-16T13:39:42.000Z</time>
      </trkpt>
      <trkpt lat="47.98959" lon="7.10891">
        <ele>1063.4</ele>
        <time>2021-01-16T13:39:47.000Z</time>
      </trkpt>
      <trkpt lat="47.98962" lon="7.10878">
        <ele>1061.8</ele>
        <time>2021-01-16T13:39:56.000Z</time>
      </trkpt>
      <trkpt lat="47.98964" lon="7.10863">
        <ele>1059.9</ele>
        <time>2021-01-16T13:40:03.000Z</time>
      </trkpt>
      <trkpt lat="47.98964" lon="7.10849">
        <ele>1057.7</ele>
        <time>2021-01-16T13:40:08.000Z</time>
      </trkpt>
      <trkpt lat="47.98965" lon="7.10829">
        <ele>1054.4</ele>
        <time>2021-01-16T13:40:13.000Z</time>
      </trkpt>
      <trkpt lat="47.98968" lon="7.10813">
        <ele>1052.5</ele>
        <time>2021-01-16T13:40:18.000Z</time>
      </trkpt>
      <trkpt lat="47.98971" lon="7.108">
        <ele>1051.1</ele>
        <time>2021-01-16T13:40:25.000Z</time>
      </trkpt>
      <trkpt lat="47.98974" lon="7.10785">
        <ele>1049</ele>
        <time>2021-01-16T13:40:30.000Z</time>
      </trkpt>
      <trkpt lat="47.98975" lon="7.10769">
        <ele>1046.6</ele>
        <time>2021-01-16T13:40:35.000Z</time>
      </trkpt>
      <trkpt lat="47.98978" lon="7.10752">
        <ele>1044.2</ele>
        <time>2021-01-16T13:40:40.000Z</time>
      </trkpt>
      <trkpt lat="47.98981" lon="7.10736">
        <ele>1042</ele>
        <time>2021-01-16T13:40:45.000Z</time>
      </trkpt>
      <trkpt lat="47.98984" lon="7.10723">
        <ele>1040.6</ele>
        <time>2021-01-16T13:40:52.000Z</time>
      </trkpt>
      <trkpt lat="47.9899" lon="7.10711">
        <ele>1039.9</ele>
        <time>2021-01-16T13:40:59.000Z</time>
      </trkpt>
      <trkpt lat="47.98997" lon="7.10699">
        <ele>1039.2</ele>
        <time>2021-01-16T13:41:06.000Z</time>
      </trkpt>
      <trkpt lat="47.99004" lon="7.1069">
        <ele>1040.1</ele>
        <time>2021-01-16T13:41:13.000Z</time>
      </trkpt>
      <trkpt lat="47.99009" lon="7.10677">
        <ele>1039.3</ele>
        <time>2021-01-16T13:42:35.000Z</time>
      </trkpt>
      <trkpt lat="47.99016" lon="7.10668">
        <ele>1040.2</ele>
        <time>2021-01-16T13:43:37.000Z</time>
      </trkpt>
      <trkpt lat="47.99023" lon="7.10657">
        <ele>1041.2</ele>
        <time>2021-01-16T13:43:44.000Z</time>
      </trkpt>
      <trkpt lat="47.99025" lon="7.10642">
        <ele>1040.1</ele>
        <time>2021-01-16T13:43:51.000Z</time>
      </trkpt>
      <trkpt lat="47.99027" lon="7.10627">
        <ele>1039.1</ele>
        <time>2021-01-16T13:43:59.000Z</time>
      </trkpt>
      <trkpt lat="47.99027" lon="7.10612">
        <ele>1037.4</ele>
        <time>2021-01-16T13:44:05.000Z</time>
      </trkpt>
      <trkpt lat="47.9903" lon="7.10599">
        <ele>1036.5</ele>
        <time>2021-01-16T13:44:12.000Z</time>
      </trkpt>
      <trkpt lat="47.99032" lon="7.10585">
        <ele>1035.7</ele>
        <time>2021-01-16T13:44:20.000Z</time>
      </trkpt>
      <trkpt lat="47.99035" lon="7.10572">
        <ele>1035.6</ele>
        <time>2021-01-16T13:44:32.000Z</time>
      </trkpt>
      <trkpt lat="47.99035" lon="7.10557">
        <ele>1034.6</ele>
        <time>2021-01-16T13:45:32.000Z</time>
      </trkpt>
      <trkpt lat="47.99037" lon="7.10543">
        <ele>1034.4</ele>
        <time>2021-01-16T13:45:37.000Z</time>
      </trkpt>
      <trkpt lat="47.99042" lon="7.10529">
        <ele>1035</ele>
        <time>2021-01-16T13:45:42.000Z</time>
      </trkpt>
      <trkpt lat="47.99044" lon="7.10515">
        <ele>1034.9</ele>
        <time>2021-01-16T13:45:50.000Z</time>
      </trkpt>
      <trkpt lat="47.99047" lon="7.10501">
        <ele>1035.1</ele>
        <time>2021-01-16T13:45:55.000Z</time>
      </trkpt>
      <trkpt lat="47.99049" lon="7.10486">
        <ele>1034.1</ele>
        <time>2021-01-16T13:46:01.000Z</time>
      </trkpt>
      <trkpt lat="47.99051" lon="7.10471">
        <ele>1033.3</ele>
        <time>2021-01-16T13:46:07.000Z</time>
      </trkpt>
      <trkpt lat="47.99054" lon="7.10457">
        <ele>1032.5</ele>
        <time>2021-01-16T13:46:14.000Z</time>
      </trkpt>
      <trkpt lat="47.99056" lon="7.10443">
        <ele>1031.4</ele>
        <time>2021-01-16T13:46:22.000Z</time>
      </trkpt>
      <trkpt lat="47.99058" lon="7.10428">
        <ele>1030.5</ele>
        <time>2021-01-16T13:46:30.000Z</time>
      </trkpt>
      <trkpt lat="47.99061" lon="7.10414">
        <ele>1029.9</ele>
        <time>2021-01-16T13:46:38.000Z</time>
      </trkpt>
      <trkpt lat="47.99063" lon="7.10399">
        <ele>1028.3</ele>
        <time>2021-01-16T13:47:16.000Z</time>
      </trkpt>
      <trkpt lat="47.99067" lon="7.10385">
        <ele>1027.5</ele>
        <time>2021-01-16T13:47:23.000Z</time>
      </trkpt>
      <trkpt lat="47.99074" lon="7.10372">
        <ele>1027.7</ele>
        <time>2021-01-16T13:47:29.000Z</time>
      </trkpt>
      <trkpt lat="47.9908" lon="7.10361">
        <ele>1027.8</ele>
        <time>2021-01-16T13:47:34.000Z</time>
      </trkpt>
      <trkpt lat="47.99084" lon="7.10348">
        <ele>1026.8</ele>
        <time>2021-01-16T13:47:40.000Z</time>
      </trkpt>
      <trkpt lat="47.99087" lon="7.10335">
        <ele>1025.7</ele>
        <time>2021-01-16T13:47:45.000Z</time>
      </trkpt>
      <trkpt lat="47.99092" lon="7.10324">
        <ele>1025.4</ele>
        <time>2021-01-16T13:47:53.000Z</time>
      </trkpt>
      <trkpt lat="47.99097" lon="7.10312">
        <ele>1025.3</ele>
        <time>2021-01-16T13:47:59.000Z</time>
      </trkpt>
      <trkpt lat="47.99103" lon="7.103">
        <ele>1024.9</ele>
        <time>2021-01-16T13:48:06.000Z</time>
      </trkpt>
      <trkpt lat="47.99107" lon="7.10287">
        <ele>1024</ele>
        <time>2021-01-16T13:48:15.000Z</time>
      </trkpt>
      <trkpt lat="47.9911" lon="7.10274">
        <ele>1022.7</ele>
        <time>2021-01-16T13:48:27.000Z</time>
      </trkpt>
      <trkpt lat="47.99115" lon="7.10261">
        <ele>1022.1</ele>
        <time>2021-01-16T13:48:40.000Z</time>
      </trkpt>
      <trkpt lat="47.99122" lon="7.10251">
        <ele>1022.7</ele>
        <time>2021-01-16T13:48:49.000Z</time>
      </trkpt>
      <trkpt lat="47.99129" lon="7.10243">
        <ele>1023</ele>
        <time>2021-01-16T13:48:58.000Z</time>
      </trkpt>
      <trkpt lat="47.99136" lon="7.10229">
        <ele>1022.1</ele>
        <time>2021-01-16T13:49:11.000Z</time>
      </trkpt>
      <trkpt lat="47.99143" lon="7.10221">
        <ele>1022.7</ele>
        <time>2021-01-16T13:49:21.000Z</time>
      </trkpt>
      <trkpt lat="47.9915" lon="7.10211">
        <ele>1022.8</ele>
        <time>2021-01-16T13:49:28.000Z</time>
      </trkpt>
      <trkpt lat="47.99155" lon="7.10198">
        <ele>1021.3</ele>
        <time>2021-01-16T13:49:36.000Z</time>
      </trkpt>
      <trkpt lat="47.99159" lon="7.10186">
        <ele>1019.8</ele>
        <time>2021-01-16T13:49:43.000Z</time>
      </trkpt>
      <trkpt lat="47.99162" lon="7.10169">
        <ele>1016.9</ele>
        <time>2021-01-16T13:50:09.000Z</time>
      </trkpt>
      <trkpt lat="47.99167" lon="7.10158">
        <ele>1016.3</ele>
        <time>2021-01-16T13:50:18.000Z</time>
      </trkpt>
      <trkpt lat="47.99174" lon="7.10147">
        <ele>1015.5</ele>
        <time>2021-01-16T13:50:28.000Z</time>
      </trkpt>
      <trkpt lat="47.99178" lon="7.10134">
        <ele>1013.5</ele>
        <time>2021-01-16T13:50:35.000Z</time>
      </trkpt>
      <trkpt lat="47.99185" lon="7.10126">
        <ele>1013.6</ele>
        <time>2021-01-16T13:50:44.000Z</time>
      </trkpt>
      <trkpt lat="47.99193" lon="7.10118">
        <ele>1013.3</ele>
        <time>2021-01-16T13:50:52.000Z</time>
      </trkpt>
      <trkpt lat="47.99202" lon="7.10112">
        <ele>1013.9</ele>
        <time>2021-01-16T13:50:59.000Z</time>
      </trkpt>
      <trkpt lat="47.99211" lon="7.10104">
        <ele>1013.5</ele>
        <time>2021-01-16T13:51:07.000Z</time>
      </trkpt>
      <trkpt lat="47.9922" lon="7.10098">
        <ele>1014</ele>
        <time>2021-01-16T13:51:14.000Z</time>
      </trkpt>
      <trkpt lat="47.99229" lon="7.10093">
        <ele>1014.6</ele>
        <time>2021-01-16T13:51:23.000Z</time>
      </trkpt>
      <trkpt lat="47.99238" lon="7.1009">
        <ele>1015.3</ele>
        <time>2021-01-16T13:51:30.000Z</time>
      </trkpt>
      <trkpt lat="47.99246" lon="7.10083">
        <ele>1015.1</ele>
        <time>2021-01-16T13:51:36.000Z</time>
      </trkpt>
      <trkpt lat="47.99255" lon="7.1008">
        <ele>1014.9</ele>
        <time>2021-01-16T13:51:47.000Z</time>
      </trkpt>
      <trkpt lat="47.99264" lon="7.10079">
        <ele>1014.4</ele>
        <time>2021-01-16T13:51:54.000Z</time>
      </trkpt>
      <trkpt lat="47.99274" lon="7.1008">
        <ele>1014.2</ele>
        <time>2021-01-16T13:52:01.000Z</time>
      </trkpt>
      <trkpt lat="47.99283" lon="7.10078">
        <ele>1013.4</ele>
        <time>2021-01-16T13:52:08.000Z</time>
      </trkpt>
      <trkpt lat="47.99292" lon="7.10075">
        <ele>1012.4</ele>
        <time>2021-01-16T13:52:16.000Z</time>
      </trkpt>
      <trkpt lat="47.99302" lon="7.10076">
        <ele>1012.2</ele>
        <time>2021-01-16T13:52:22.000Z</time>
      </trkpt>
      <trkpt lat="47.99313" lon="7.10077">
        <ele>1012</ele>
        <time>2021-01-16T13:52:28.000Z</time>
      </trkpt>
      <trkpt lat="47.99322" lon="7.10079">
        <ele>1012.2</ele>
        <time>2021-01-16T13:52:34.000Z</time>
      </trkpt>
      <trkpt lat="47.99331" lon="7.10077">
        <ele>1011.3</ele>
        <time>2021-01-16T13:52:40.000Z</time>
      </trkpt>
      <trkpt lat="47.99342" lon="7.10075">
        <ele>1011</ele>
        <time>2021-01-16T13:52:47.000Z</time>
      </trkpt>
      <trkpt lat="47.99355" lon="7.10075">
        <ele>1011</ele>
        <time>2021-01-16T13:52:52.000Z</time>
      </trkpt>
      <trkpt lat="47.99364" lon="7.10076">
        <ele>1011.4</ele>
        <time>2021-01-16T13:52:57.000Z</time>
      </trkpt>
      <trkpt lat="47.99373" lon="7.10074">
        <ele>1010.8</ele>
        <time>2021-01-16T13:53:02.000Z</time>
      </trkpt>
      <trkpt lat="47.99383" lon="7.10067">
        <ele>1009.4</ele>
        <time>2021-01-16T13:53:07.000Z</time>
      </trkpt>
      <trkpt lat="47.9939" lon="7.10058">
        <ele>1007.5</ele>
        <time>2021-01-16T13:53:13.000Z</time>
      </trkpt>
      <trkpt lat="47.99397" lon="7.1005">
        <ele>1005.7</ele>
        <time>2021-01-16T13:53:20.000Z</time>
      </trkpt>
      <trkpt lat="47.99404" lon="7.10041">
        <ele>1004</ele>
        <time>2021-01-16T13:53:26.000Z</time>
      </trkpt>
      <trkpt lat="47.99414" lon="7.10036">
        <ele>1003.3</ele>
        <time>2021-01-16T13:54:08.000Z</time>
      </trkpt>
      <trkpt lat="47.99423" lon="7.10033">
        <ele>1002.9</ele>
        <time>2021-01-16T13:54:13.000Z</time>
      </trkpt>
      <trkpt lat="47.99432" lon="7.10029">
        <ele>1002.4</ele>
        <time>2021-01-16T13:54:18.000Z</time>
      </trkpt>
      <trkpt lat="47.99442" lon="7.10017">
        <ele>1000.6</ele>
        <time>2021-01-16T13:54:23.000Z</time>
      </trkpt>
      <trkpt lat="47.99455" lon="7.09997">
        <ele>997.7</ele>
        <time>2021-01-16T13:54:28.000Z</time>
      </trkpt>
      <trkpt lat="47.99466" lon="7.09967">
        <ele>993.1</ele>
        <time>2021-01-16T13:54:33.000Z</time>
      </trkpt>
      <trkpt lat="47.99473" lon="7.09934">
        <ele>988.4</ele>
        <time>2021-01-16T13:54:38.000Z</time>
      </trkpt>
      <trkpt lat="47.9948" lon="7.09906">
        <ele>984.1</ele>
        <time>2021-01-16T13:54:43.000Z</time>
      </trkpt>
      <trkpt lat="47.99483" lon="7.09884">
        <ele>980.3</ele>
        <time>2021-01-16T13:54:48.000Z</time>
      </trkpt>
      <trkpt lat="47.99482" lon="7.09869">
        <ele>977.2</ele>
        <time>2021-01-16T13:55:01.000Z</time>
      </trkpt>
      <trkpt lat="47.99484" lon="7.09853">
        <ele>974.2</ele>
        <time>2021-01-16T13:55:34.000Z</time>
      </trkpt>
      <trkpt lat="47.99493" lon="7.0983">
        <ele>971.1</ele>
        <time>2021-01-16T13:55:39.000Z</time>
      </trkpt>
      <trkpt lat="47.99501" lon="7.09801">
        <ele>965.3</ele>
        <time>2021-01-16T13:55:44.000Z</time>
      </trkpt>
      <trkpt lat="47.99513" lon="7.09773">
        <ele>959.4</ele>
        <time>2021-01-16T13:55:49.000Z</time>
      </trkpt>
      <trkpt lat="47.99529" lon="7.09755">
        <ele>955.9</ele>
        <time>2021-01-16T13:55:54.000Z</time>
      </trkpt>
      <trkpt lat="47.99538" lon="7.09749">
        <ele>954.9</ele>
        <time>2021-01-16T13:56:20.000Z</time>
      </trkpt>
      <trkpt lat="47.9953" lon="7.09739">
        <ele>952</ele>
        <time>2021-01-16T13:56:38.000Z</time>
      </trkpt>
      <trkpt lat="47.99513" lon="7.0972">
        <ele>946</ele>
        <time>2021-01-16T13:56:43.000Z</time>
      </trkpt>
      <trkpt lat="47.99495" lon="7.097">
        <ele>939.3</ele>
        <time>2021-01-16T13:56:48.000Z</time>
      </trkpt>
      <trkpt lat="47.9949" lon="7.09687">
        <ele>935.6</ele>
        <time>2021-01-16T13:56:53.000Z</time>
      </trkpt>
      <trkpt lat="47.99499" lon="7.09681">
        <ele>934.7</ele>
        <time>2021-01-16T13:57:05.000Z</time>
      </trkpt>
      <trkpt lat="47.9951" lon="7.09678">
        <ele>934.6</ele>
        <time>2021-01-16T13:57:12.000Z</time>
      </trkpt>
      <trkpt lat="47.99521" lon="7.09672">
        <ele>934</ele>
        <time>2021-01-16T13:57:17.000Z</time>
      </trkpt>
      <trkpt lat="47.99534" lon="7.09661">
        <ele>932.4</ele>
        <time>2021-01-16T13:57:22.000Z</time>
      </trkpt>
      <trkpt lat="47.99547" lon="7.09645">
        <ele>930</ele>
        <time>2021-01-16T13:57:27.000Z</time>
      </trkpt>
      <trkpt lat="47.9956" lon="7.09614">
        <ele>924.2</ele>
        <time>2021-01-16T13:57:32.000Z</time>
      </trkpt>
      <trkpt lat="47.99575" lon="7.09595">
        <ele>921.6</ele>
        <time>2021-01-16T13:57:37.000Z</time>
      </trkpt>
      <trkpt lat="47.99589" lon="7.09562">
        <ele>915.4</ele>
        <time>2021-01-16T13:57:42.000Z</time>
      </trkpt>
      <trkpt lat="47.99594" lon="7.09531">
        <ele>908.2</ele>
        <time>2021-01-16T13:57:47.000Z</time>
      </trkpt>
      <trkpt lat="47.99597" lon="7.09494">
        <ele>899.8</ele>
        <time>2021-01-16T13:57:52.000Z</time>
      </trkpt>
      <trkpt lat="47.99598" lon="7.09476">
        <ele>895.8</ele>
        <time>2021-01-16T13:57:57.000Z</time>
      </trkpt>
      <trkpt lat="47.99599" lon="7.09462">
        <ele>892.5</ele>
        <time>2021-01-16T13:58:03.000Z</time>
      </trkpt>
      <trkpt lat="47.99604" lon="7.0945">
        <ele>889.4</ele>
        <time>2021-01-16T13:58:17.000Z</time>
      </trkpt>
      <trkpt lat="47.99607" lon="7.09427">
        <ele>884.1</ele>
        <time>2021-01-16T13:58:22.000Z</time>
      </trkpt>
      <trkpt lat="47.99609" lon="7.09395">
        <ele>880.4</ele>
        <time>2021-01-16T13:58:27.000Z</time>
      </trkpt>
      <trkpt lat="47.99612" lon="7.09367">
        <ele>878.4</ele>
        <time>2021-01-16T13:58:32.000Z</time>
      </trkpt>
      <trkpt lat="47.99617" lon="7.0935">
        <ele>876.9</ele>
        <time>2021-01-16T13:58:37.000Z</time>
      </trkpt>
      <trkpt lat="47.99619" lon="7.09336">
        <ele>875.9</ele>
        <time>2021-01-16T13:58:44.000Z</time>
      </trkpt>
      <trkpt lat="47.99621" lon="7.09321">
        <ele>876.1</ele>
        <time>2021-01-16T13:58:50.000Z</time>
      </trkpt>
      <trkpt lat="47.99622" lon="7.09308">
        <ele>876.8</ele>
        <time>2021-01-16T13:58:57.000Z</time>
      </trkpt>
      <trkpt lat="47.99625" lon="7.09293">
        <ele>877.4</ele>
        <time>2021-01-16T13:59:03.000Z</time>
      </trkpt>
      <trkpt lat="47.99629" lon="7.0928">
        <ele>878</ele>
        <time>2021-01-16T13:59:08.000Z</time>
      </trkpt>
      <trkpt lat="47.99635" lon="7.09269">
        <ele>878.6</ele>
        <time>2021-01-16T13:59:14.000Z</time>
      </trkpt>
      <trkpt lat="47.9964" lon="7.09257">
        <ele>879.4</ele>
        <time>2021-01-16T13:59:21.000Z</time>
      </trkpt>
      <trkpt lat="47.99642" lon="7.09243">
        <ele>879.9</ele>
        <time>2021-01-16T13:59:51.000Z</time>
      </trkpt>
      <trkpt lat="47.9964" lon="7.09221">
        <ele>879.7</ele>
        <time>2021-01-16T13:59:56.000Z</time>
      </trkpt>
      <trkpt lat="47.99636" lon="7.09199">
        <ele>879.2</ele>
        <time>2021-01-16T14:00:01.000Z</time>
      </trkpt>
      <trkpt lat="47.99632" lon="7.09185">
        <ele>878.7</ele>
        <time>2021-01-16T14:00:27.000Z</time>
      </trkpt>
      <trkpt lat="47.99628" lon="7.09166">
        <ele>877.7</ele>
        <time>2021-01-16T14:00:32.000Z</time>
      </trkpt>
      <trkpt lat="47.99623" lon="7.09142">
        <ele>874.6</ele>
        <time>2021-01-16T14:00:37.000Z</time>
      </trkpt>
      <trkpt lat="47.99626" lon="7.09122">
        <ele>873.1</ele>
        <time>2021-01-16T14:00:42.000Z</time>
      </trkpt>
      <trkpt lat="47.99628" lon="7.09099">
        <ele>871.1</ele>
        <time>2021-01-16T14:00:47.000Z</time>
      </trkpt>
      <trkpt lat="47.99636" lon="7.09071">
        <ele>868.9</ele>
        <time>2021-01-16T14:00:52.000Z</time>
      </trkpt>
      <trkpt lat="47.99642" lon="7.09046">
        <ele>866.2</ele>
        <time>2021-01-16T14:00:57.000Z</time>
      </trkpt>
      <trkpt lat="47.99645" lon="7.09029">
        <ele>864.1</ele>
        <time>2021-01-16T14:01:10.000Z</time>
      </trkpt>
      <trkpt lat="47.99645" lon="7.09015">
        <ele>861.9</ele>
        <time>2021-01-16T14:01:37.000Z</time>
      </trkpt>
      <trkpt lat="47.99641" lon="7.09">
        <ele>858.8</ele>
        <time>2021-01-16T14:01:51.000Z</time>
      </trkpt>
      <trkpt lat="47.99643" lon="7.08986">
        <ele>856.9</ele>
        <time>2021-01-16T14:01:58.000Z</time>
      </trkpt>
      <trkpt lat="47.99638" lon="7.08958">
        <ele>850.8</ele>
        <time>2021-01-16T14:02:03.000Z</time>
      </trkpt>
      <trkpt lat="47.99624" lon="7.08927">
        <ele>842.4</ele>
        <time>2021-01-16T14:02:08.000Z</time>
      </trkpt>
      <trkpt lat="47.99608" lon="7.08893">
        <ele>834.4</ele>
        <time>2021-01-16T14:02:13.000Z</time>
      </trkpt>
      <trkpt lat="47.99586" lon="7.08866">
        <ele>827.3</ele>
        <time>2021-01-16T14:02:18.000Z</time>
      </trkpt>
      <trkpt lat="47.99582" lon="7.08841">
        <ele>823.5</ele>
        <time>2021-01-16T14:02:23.000Z</time>
      </trkpt>
      <trkpt lat="47.99588" lon="7.08827">
        <ele>822.8</ele>
        <time>2021-01-16T14:02:28.000Z</time>
      </trkpt>
      <trkpt lat="47.99593" lon="7.08813">
        <ele>821.4</ele>
        <time>2021-01-16T14:02:35.000Z</time>
      </trkpt>
      <trkpt lat="47.99597" lon="7.08801">
        <ele>820.2</ele>
        <time>2021-01-16T14:02:42.000Z</time>
      </trkpt>
      <trkpt lat="47.99601" lon="7.08784">
        <ele>818.3</ele>
        <time>2021-01-16T14:02:48.000Z</time>
      </trkpt>
      <trkpt lat="47.99606" lon="7.08773">
        <ele>817.4</ele>
        <time>2021-01-16T14:02:54.000Z</time>
      </trkpt>
      <trkpt lat="47.99609" lon="7.08759">
        <ele>815.7</ele>
        <time>2021-01-16T14:03:23.000Z</time>
      </trkpt>
      <trkpt lat="47.99611" lon="7.0874">
        <ele>813.1</ele>
        <time>2021-01-16T14:03:28.000Z</time>
      </trkpt>
      <trkpt lat="47.99614" lon="7.0871">
        <ele>808.1</ele>
        <time>2021-01-16T14:03:33.000Z</time>
      </trkpt>
      <trkpt lat="47.99615" lon="7.08676">
        <ele>802.5</ele>
        <time>2021-01-16T14:03:38.000Z</time>
      </trkpt>
      <trkpt lat="47.99621" lon="7.08643">
        <ele>795.8</ele>
        <time>2021-01-16T14:03:43.000Z</time>
      </trkpt>
      <trkpt lat="47.99616" lon="7.08613">
        <ele>789</ele>
        <time>2021-01-16T14:03:48.000Z</time>
      </trkpt>
      <trkpt lat="47.99609" lon="7.0859">
        <ele>783.9</ele>
        <time>2021-01-16T14:03:53.000Z</time>
      </trkpt>
      <trkpt lat="47.996" lon="7.08585">
        <ele>783</ele>
        <time>2021-01-16T14:04:36.000Z</time>
      </trkpt>
      <trkpt lat="47.99591" lon="7.08582">
        <ele>782.5</ele>
        <time>2021-01-16T14:04:48.000Z</time>
      </trkpt>
      <trkpt lat="47.99581" lon="7.08577">
        <ele>780.7</ele>
        <time>2021-01-16T14:05:02.000Z</time>
      </trkpt>
      <trkpt lat="47.99569" lon="7.08569">
        <ele>775.9</ele>
        <time>2021-01-16T14:05:07.000Z</time>
      </trkpt>
      <trkpt lat="47.99556" lon="7.08551">
        <ele>768.2</ele>
        <time>2021-01-16T14:05:12.000Z</time>
      </trkpt>
      <trkpt lat="47.99543" lon="7.08531">
        <ele>760.5</ele>
        <time>2021-01-16T14:05:17.000Z</time>
      </trkpt>
      <trkpt lat="47.99532" lon="7.08508">
        <ele>752.4</ele>
        <time>2021-01-16T14:05:22.000Z</time>
      </trkpt>
      <trkpt lat="47.99516" lon="7.08498">
        <ele>747.2</ele>
        <time>2021-01-16T14:05:27.000Z</time>
      </trkpt>
      <trkpt lat="47.99507" lon="7.08497">
        <ele>745.6</ele>
        <time>2021-01-16T14:05:37.000Z</time>
      </trkpt>
      <trkpt lat="47.99498" lon="7.08502">
        <ele>744.9</ele>
        <time>2021-01-16T14:05:59.000Z</time>
      </trkpt>
      <trkpt lat="47.99488" lon="7.08499">
        <ele>741.5</ele>
        <time>2021-01-16T14:06:05.000Z</time>
      </trkpt>
      <trkpt lat="47.99478" lon="7.08502">
        <ele>739.4</ele>
        <time>2021-01-16T14:06:10.000Z</time>
      </trkpt>
      <trkpt lat="47.99468" lon="7.08501">
        <ele>736.5</ele>
        <time>2021-01-16T14:06:17.000Z</time>
      </trkpt>
      <trkpt lat="47.99458" lon="7.08513">
        <ele>736.2</ele>
        <time>2021-01-16T14:07:01.000Z</time>
      </trkpt>
      <trkpt lat="47.99449" lon="7.0852">
        <ele>735.6</ele>
        <time>2021-01-16T14:07:22.000Z</time>
      </trkpt>
      <trkpt lat="47.99438" lon="7.08527">
        <ele>733.8</ele>
        <time>2021-01-16T14:07:27.000Z</time>
      </trkpt>
      <trkpt lat="47.99432" lon="7.08536">
        <ele>734.1</ele>
        <time>2021-01-16T14:07:35.000Z</time>
      </trkpt>
      <trkpt lat="47.99423" lon="7.08544">
        <ele>733.4</ele>
        <time>2021-01-16T14:07:48.000Z</time>
      </trkpt>
      <trkpt lat="47.99417" lon="7.08553">
        <ele>733.5</ele>
        <time>2021-01-16T14:07:54.000Z</time>
      </trkpt>
      <trkpt lat="47.99409" lon="7.08561">
        <ele>733.6</ele>
        <time>2021-01-16T14:08:01.000Z</time>
      </trkpt>
      <trkpt lat="47.99403" lon="7.08572">
        <ele>734.4</ele>
        <time>2021-01-16T14:08:14.000Z</time>
      </trkpt>
      <trkpt lat="47.99396" lon="7.08581">
        <ele>734.7</ele>
        <time>2021-01-16T14:08:26.000Z</time>
      </trkpt>
      <trkpt lat="47.99387" lon="7.08584">
        <ele>733.3</ele>
        <time>2021-01-16T14:08:33.000Z</time>
      </trkpt>
      <trkpt lat="47.99378" lon="7.08588">
        <ele>732</ele>
        <time>2021-01-16T14:08:40.000Z</time>
      </trkpt>
      <trkpt lat="47.99368" lon="7.08592">
        <ele>730.3</ele>
        <time>2021-01-16T14:08:49.000Z</time>
      </trkpt>
      <trkpt lat="47.99352" lon="7.08588">
        <ele>725.9</ele>
        <time>2021-01-16T14:08:54.000Z</time>
      </trkpt>
      <trkpt lat="47.99333" lon="7.08583">
        <ele>720.8</ele>
        <time>2021-01-16T14:08:59.000Z</time>
      </trkpt>
      <trkpt lat="47.99318" lon="7.08584">
        <ele>715</ele>
        <time>2021-01-16T14:09:04.000Z</time>
      </trkpt>
      <trkpt lat="47.99306" lon="7.08597">
        <ele>711.5</ele>
        <time>2021-01-16T14:09:09.000Z</time>
      </trkpt>
      <trkpt lat="47.99304" lon="7.08618">
        <ele>712.7</ele>
        <time>2021-01-16T14:09:14.000Z</time>
      </trkpt>
      <trkpt lat="47.99301" lon="7.08646">
        <ele>714.2</ele>
        <time>2021-01-16T14:09:19.000Z</time>
      </trkpt>
      <trkpt lat="47.99292" lon="7.08674">
        <ele>713.2</ele>
        <time>2021-01-16T14:09:24.000Z</time>
      </trkpt>
      <trkpt lat="47.99284" lon="7.08698">
        <ele>712.4</ele>
        <time>2021-01-16T14:09:29.000Z</time>
      </trkpt>
      <trkpt lat="47.99277" lon="7.08713">
        <ele>711.4</ele>
        <time>2021-01-16T14:09:34.000Z</time>
      </trkpt>
      <trkpt lat="47.99274" lon="7.08728">
        <ele>711.9</ele>
        <time>2021-01-16T14:09:39.000Z</time>
      </trkpt>
      <trkpt lat="47.99274" lon="7.08741">
        <ele>713.4</ele>
        <time>2021-01-16T14:09:45.000Z</time>
      </trkpt>
      <trkpt lat="47.99273" lon="7.08755">
        <ele>714.2</ele>
        <time>2021-01-16T14:09:53.000Z</time>
      </trkpt>
      <trkpt lat="47.99276" lon="7.08768">
        <ele>715.6</ele>
        <time>2021-01-16T14:10:08.000Z</time>
      </trkpt>
      <trkpt lat="47.99274" lon="7.08782">
        <ele>714.7</ele>
        <time>2021-01-16T14:10:20.000Z</time>
      </trkpt>
      <trkpt lat="47.99277" lon="7.08798">
        <ele>715.8</ele>
        <time>2021-01-16T14:10:27.000Z</time>
      </trkpt>
      <trkpt lat="47.9928" lon="7.0881">
        <ele>717.2</ele>
        <time>2021-01-16T14:10:33.000Z</time>
      </trkpt>
      <trkpt lat="47.99282" lon="7.08823">
        <ele>718.1</ele>
        <time>2021-01-16T14:10:42.000Z</time>
      </trkpt>
      <trkpt lat="47.99289" lon="7.08834">
        <ele>721.2</ele>
        <time>2021-01-16T14:11:02.000Z</time>
      </trkpt>
      <trkpt lat="47.99292" lon="7.08847">
        <ele>723.5</ele>
        <time>2021-01-16T14:11:10.000Z</time>
      </trkpt>
      <trkpt lat="47.99297" lon="7.0886">
        <ele>725.9</ele>
        <time>2021-01-16T14:11:21.000Z</time>
      </trkpt>
      <trkpt lat="47.993" lon="7.08875">
        <ele>727.9</ele>
        <time>2021-01-16T14:11:28.000Z</time>
      </trkpt>
      <trkpt lat="47.99297" lon="7.08889">
        <ele>727.5</ele>
        <time>2021-01-16T14:11:35.000Z</time>
      </trkpt>
      <trkpt lat="47.99294" lon="7.08903">
        <ele>726.8</ele>
        <time>2021-01-16T14:11:43.000Z</time>
      </trkpt>
      <trkpt lat="47.9929" lon="7.08916">
        <ele>725.7</ele>
        <time>2021-01-16T14:11:50.000Z</time>
      </trkpt>
      <trkpt lat="47.99285" lon="7.08929">
        <ele>726.1</ele>
        <time>2021-01-16T14:12:32.000Z</time>
      </trkpt>
      <trkpt lat="47.9928" lon="7.08917">
        <ele>721.8</ele>
        <time>2021-01-16T14:12:43.000Z</time>
      </trkpt>
      <trkpt lat="47.99277" lon="7.08891">
        <ele>719.2</ele>
        <time>2021-01-16T14:12:48.000Z</time>
      </trkpt>
      <trkpt lat="47.99269" lon="7.08862">
        <ele>713.6</ele>
        <time>2021-01-16T14:12:53.000Z</time>
      </trkpt>
      <trkpt lat="47.99255" lon="7.08821">
        <ele>705.2</ele>
        <time>2021-01-16T14:12:58.000Z</time>
      </trkpt>
      <trkpt lat="47.9924" lon="7.08771">
        <ele>701.9</ele>
        <time>2021-01-16T14:13:03.000Z</time>
      </trkpt>
      <trkpt lat="47.99233" lon="7.0872">
        <ele>696.1</ele>
        <time>2021-01-16T14:13:08.000Z</time>
      </trkpt>
      <trkpt lat="47.99232" lon="7.08675">
        <ele>689.6</ele>
        <time>2021-01-16T14:13:13.000Z</time>
      </trkpt>
      <trkpt lat="47.99231" lon="7.0863">
        <ele>685.2</ele>
        <time>2021-01-16T14:13:18.000Z</time>
      </trkpt>
      <trkpt lat="47.99227" lon="7.08599">
        <ele>681.5</ele>
        <time>2021-01-16T14:13:23.000Z</time>
      </trkpt>
      <trkpt lat="47.99222" lon="7.08566">
        <ele>677.5</ele>
        <time>2021-01-16T14:13:28.000Z</time>
      </trkpt>
      <trkpt lat="47.99206" lon="7.08529">
        <ele>670.2</ele>
        <time>2021-01-16T14:13:33.000Z</time>
      </trkpt>
      <trkpt lat="47.99187" lon="7.08487">
        <ele>661.1</ele>
        <time>2021-01-16T14:13:38.000Z</time>
      </trkpt>
      <trkpt lat="47.99173" lon="7.08441">
        <ele>654.3</ele>
        <time>2021-01-16T14:13:43.000Z</time>
      </trkpt>
      <trkpt lat="47.99179" lon="7.08398">
        <ele>651.8</ele>
        <time>2021-01-16T14:13:48.000Z</time>
      </trkpt>
      <trkpt lat="47.99174" lon="7.08379">
        <ele>647.5</ele>
        <time>2021-01-16T14:13:53.000Z</time>
      </trkpt>
      <trkpt lat="47.99161" lon="7.08387">
        <ele>646.2</ele>
        <time>2021-01-16T14:13:58.000Z</time>
      </trkpt>
      <trkpt lat="47.99153" lon="7.08423">
        <ele>649.8</ele>
        <time>2021-01-16T14:14:03.000Z</time>
      </trkpt>
      <trkpt lat="47.99158" lon="7.08446">
        <ele>651.7</ele>
        <time>2021-01-16T14:14:08.000Z</time>
      </trkpt>
      <trkpt lat="47.99163" lon="7.08466">
        <ele>652.9</ele>
        <time>2021-01-16T14:15:36.000Z</time>
      </trkpt>
      <trkpt lat="47.99167" lon="7.08478">
        <ele>653.7</ele>
        <time>2021-01-16T14:15:44.000Z</time>
      </trkpt>
      <trkpt lat="47.9917" lon="7.08491">
        <ele>655</ele>
        <time>2021-01-16T14:15:50.000Z</time>
      </trkpt>
      <trkpt lat="47.99173" lon="7.08505">
        <ele>656.5</ele>
        <time>2021-01-16T14:15:56.000Z</time>
      </trkpt>
      <trkpt lat="47.99172" lon="7.0852">
        <ele>657</ele>
        <time>2021-01-16T14:16:02.000Z</time>
      </trkpt>
      <trkpt lat="47.99161" lon="7.08531">
        <ele>656.3</ele>
        <time>2021-01-16T14:16:07.000Z</time>
      </trkpt>
      <trkpt lat="47.9915" lon="7.08537">
        <ele>657.7</ele>
        <time>2021-01-16T14:16:12.000Z</time>
      </trkpt>
      <trkpt lat="47.99139" lon="7.08532">
        <ele>658.1</ele>
        <time>2021-01-16T14:16:17.000Z</time>
      </trkpt>
      <trkpt lat="47.99125" lon="7.08521">
        <ele>657.6</ele>
        <time>2021-01-16T14:16:22.000Z</time>
      </trkpt>
      <trkpt lat="47.9911" lon="7.08504">
        <ele>655.4</ele>
        <time>2021-01-16T14:16:27.000Z</time>
      </trkpt>
      <trkpt lat="47.99097" lon="7.08487">
        <ele>652.5</ele>
        <time>2021-01-16T14:16:32.000Z</time>
      </trkpt>
      <trkpt lat="47.99083" lon="7.08468">
        <ele>648.2</ele>
        <time>2021-01-16T14:16:37.000Z</time>
      </trkpt>
      <trkpt lat="47.99073" lon="7.08449">
        <ele>647.2</ele>
        <time>2021-01-16T14:16:42.000Z</time>
      </trkpt>
      <trkpt lat="47.99062" lon="7.08432">
        <ele>646.4</ele>
        <time>2021-01-16T14:16:47.000Z</time>
      </trkpt>
      <trkpt lat="47.99051" lon="7.08412">
        <ele>644.3</ele>
        <time>2021-01-16T14:16:52.000Z</time>
      </trkpt>
      <trkpt lat="47.99038" lon="7.08395">
        <ele>642.8</ele>
        <time>2021-01-16T14:16:57.000Z</time>
      </trkpt>
      <trkpt lat="47.99025" lon="7.08373">
        <ele>638.9</ele>
        <time>2021-01-16T14:17:02.000Z</time>
      </trkpt>
      <trkpt lat="47.99014" lon="7.0836">
        <ele>636</ele>
        <time>2021-01-16T14:17:07.000Z</time>
      </trkpt>
      <trkpt lat="47.98997" lon="7.08357">
        <ele>637.2</ele>
        <time>2021-01-16T14:17:12.000Z</time>
      </trkpt>
      <trkpt lat="47.98976" lon="7.08351">
        <ele>636.4</ele>
        <time>2021-01-16T14:17:17.000Z</time>
      </trkpt>
      <trkpt lat="47.98957" lon="7.08347">
        <ele>636.4</ele>
        <time>2021-01-16T14:17:22.000Z</time>
      </trkpt>
      <trkpt lat="47.98939" lon="7.08343">
        <ele>635.9</ele>
        <time>2021-01-16T14:17:27.000Z</time>
      </trkpt>
      <trkpt lat="47.98924" lon="7.08344">
        <ele>637.5</ele>
        <time>2021-01-16T14:17:32.000Z</time>
      </trkpt>
      <trkpt lat="47.98913" lon="7.08346">
        <ele>639.6</ele>
        <time>2021-01-16T14:17:37.000Z</time>
      </trkpt>
      <trkpt lat="47.98902" lon="7.08342">
        <ele>639.2</ele>
        <time>2021-01-16T14:17:45.000Z</time>
      </trkpt>
      <trkpt lat="47.98894" lon="7.0833">
        <ele>636.2</ele>
        <time>2021-01-16T14:17:50.000Z</time>
      </trkpt>
      <trkpt lat="47.9888" lon="7.08324">
        <ele>637.5</ele>
        <time>2021-01-16T14:20:40.000Z</time>
      </trkpt>
      <trkpt lat="47.98869" lon="7.08324">
        <ele>639.4</ele>
        <time>2021-01-16T14:20:55.000Z</time>
      </trkpt>
      <trkpt lat="47.98858" lon="7.08322">
        <ele>640.9</ele>
        <time>2021-01-16T14:21:07.000Z</time>
      </trkpt>
      <trkpt lat="47.98846" lon="7.0832">
        <ele>642.8</ele>
        <time>2021-01-16T14:21:19.000Z</time>
      </trkpt>
      <trkpt lat="47.98833" lon="7.08323">
        <ele>645.1</ele>
        <time>2021-01-16T14:21:31.000Z</time>
      </trkpt>
      <trkpt lat="47.98821" lon="7.08324">
        <ele>645.7</ele>
        <time>2021-01-16T14:21:44.000Z</time>
      </trkpt>
      <trkpt lat="47.98809" lon="7.08324">
        <ele>646.2</ele>
        <time>2021-01-16T14:21:56.000Z</time>
      </trkpt>
      <trkpt lat="47.98797" lon="7.08323">
        <ele>646.7</ele>
        <time>2021-01-16T14:22:09.000Z</time>
      </trkpt>
      <trkpt lat="47.98785" lon="7.08325">
        <ele>647.2</ele>
        <time>2021-01-16T14:22:22.000Z</time>
      </trkpt>
      <trkpt lat="47.98773" lon="7.0833">
        <ele>647.5</ele>
        <time>2021-01-16T14:22:33.000Z</time>
      </trkpt>
      <trkpt lat="47.98761" lon="7.08336">
        <ele>648.4</ele>
        <time>2021-01-16T14:22:45.000Z</time>
      </trkpt>
      <trkpt lat="47.98749" lon="7.08344">
        <ele>651.1</ele>
        <time>2021-01-16T14:23:01.000Z</time>
      </trkpt>
      <trkpt lat="47.98739" lon="7.08352">
        <ele>654.1</ele>
        <time>2021-01-16T14:23:17.000Z</time>
      </trkpt>
      <trkpt lat="47.98727" lon="7.08357">
        <ele>656.1</ele>
        <time>2021-01-16T14:23:30.000Z</time>
      </trkpt>
      <trkpt lat="47.98727" lon="7.08363">
        <ele>657.4</ele>
        <time>2021-01-16T14:24:08.000Z</time>
      </trkpt>
    </trkseg>
  </trk>
</gpx>